<?xml version="1.0" encoding="UTF-8" standalone="no" ?>
<gpx xmlns="http://www.topografix.com/GPX/1/1" xmlns:xsi="http://www.w3.org/2001/XMLSchema-instance" xsi:schemaLocation="http://www.topografix.com/GPX/1/1 http://www.topografix.com/GPX/1/1/gpx.xsd" version="1.1" creator="VisuGPX - https://www.visugpx.com">
  <metadata>
    <name>blanqueta</name>
  </metadata>
  <trk>
    <name><![CDATA[blanqueta_1]]></name>
    <trkseg>
      <trkpt lat="43.07791" lon="2.37666">
        <ele>259.2126</ele>
        <time>2012-05-06T10:05:08Z</time>
      </trkpt>
      <trkpt lat="43.07791" lon="2.37666">
        <ele>259.2126</ele>
        <time>2012-05-06T10:05:08Z</time>
      </trkpt>
      <trkpt lat="43.07786" lon="2.37653">
        <ele>257.7708</ele>
        <time>2012-05-06T10:05:13Z</time>
      </trkpt>
      <trkpt lat="43.07777" lon="2.37598">
        <ele>254.406</ele>
        <time>2012-05-06T10:05:20Z</time>
      </trkpt>
      <trkpt lat="43.07767" lon="2.37536">
        <ele>252.0028</ele>
        <time>2012-05-06T10:05:28Z</time>
      </trkpt>
      <trkpt lat="43.0776" lon="2.37538">
        <ele>250.5608</ele>
        <time>2012-05-06T10:05:33Z</time>
      </trkpt>
      <trkpt lat="43.0776" lon="2.37548">
        <ele>249.5995</ele>
        <time>2012-05-06T10:05:35Z</time>
      </trkpt>
      <trkpt lat="43.07731" lon="2.37557">
        <ele>249.5995</ele>
        <time>2012-05-06T10:05:48Z</time>
      </trkpt>
      <trkpt lat="43.07709" lon="2.37553">
        <ele>251.0414</ele>
        <time>2012-05-06T10:06:00Z</time>
      </trkpt>
      <trkpt lat="43.07697" lon="2.37552">
        <ele>251.0414</ele>
        <time>2012-05-06T10:06:08Z</time>
      </trkpt>
      <trkpt lat="43.07661" lon="2.37542">
        <ele>251.0414</ele>
        <time>2012-05-06T10:06:23Z</time>
      </trkpt>
      <trkpt lat="43.07617" lon="2.37515">
        <ele>252.0028</ele>
        <time>2012-05-06T10:06:41Z</time>
      </trkpt>
      <trkpt lat="43.07579" lon="2.37475">
        <ele>255.3673</ele>
        <time>2012-05-06T10:07:02Z</time>
      </trkpt>
      <trkpt lat="43.07551" lon="2.3745">
        <ele>258.2513</ele>
        <time>2012-05-06T10:07:20Z</time>
      </trkpt>
      <trkpt lat="43.07544" lon="2.37436">
        <ele>262.0966</ele>
        <time>2012-05-06T10:07:30Z</time>
      </trkpt>
      <trkpt lat="43.07544" lon="2.37434">
        <ele>262.0966</ele>
        <time>2012-05-06T10:07:31Z</time>
      </trkpt>
      <trkpt lat="43.07535" lon="2.37421">
        <ele>264.0193</ele>
        <time>2012-05-06T10:07:48Z</time>
      </trkpt>
      <trkpt lat="43.07532" lon="2.37416">
        <ele>264.9806</ele>
        <time>2012-05-06T10:08:02Z</time>
      </trkpt>
      <trkpt lat="43.07526" lon="2.37406">
        <ele>267.3839</ele>
        <time>2012-05-06T10:08:18Z</time>
      </trkpt>
      <trkpt lat="43.07525" lon="2.37404">
        <ele>267.8645</ele>
        <time>2012-05-06T10:08:20Z</time>
      </trkpt>
      <trkpt lat="43.07518" lon="2.37397">
        <ele>271.2291</ele>
        <time>2012-05-06T10:08:34Z</time>
      </trkpt>
      <trkpt lat="43.07518" lon="2.37395">
        <ele>271.7097</ele>
        <time>2012-05-06T10:08:40Z</time>
      </trkpt>
      <trkpt lat="43.07508" lon="2.37384">
        <ele>275.5551</ele>
        <time>2012-05-06T10:08:58Z</time>
      </trkpt>
      <trkpt lat="43.07496" lon="2.37378">
        <ele>278.9197</ele>
        <time>2012-05-06T10:09:16Z</time>
      </trkpt>
      <trkpt lat="43.07494" lon="2.37375">
        <ele>280.3617</ele>
        <time>2012-05-06T10:09:21Z</time>
      </trkpt>
      <trkpt lat="43.0749" lon="2.37373">
        <ele>281.323</ele>
        <time>2012-05-06T10:09:25Z</time>
      </trkpt>
      <trkpt lat="43.07484" lon="2.37364">
        <ele>284.6876</ele>
        <time>2012-05-06T10:09:40Z</time>
      </trkpt>
      <trkpt lat="43.07478" lon="2.37353">
        <ele>288.0522</ele>
        <time>2012-05-06T10:09:54Z</time>
      </trkpt>
      <trkpt lat="43.07472" lon="2.37342">
        <ele>291.4167</ele>
        <time>2012-05-06T10:10:10Z</time>
      </trkpt>
      <trkpt lat="43.07461" lon="2.37325">
        <ele>294.3008</ele>
        <time>2012-05-06T10:10:28Z</time>
      </trkpt>
      <trkpt lat="43.07447" lon="2.37313">
        <ele>297.6654</ele>
        <time>2012-05-06T10:10:49Z</time>
      </trkpt>
      <trkpt lat="43.07445" lon="2.37297">
        <ele>300.5493</ele>
        <time>2012-05-06T10:11:05Z</time>
      </trkpt>
      <trkpt lat="43.07442" lon="2.37285">
        <ele>303.4332</ele>
        <time>2012-05-06T10:11:20Z</time>
      </trkpt>
      <trkpt lat="43.07434" lon="2.37277">
        <ele>305.356</ele>
        <time>2012-05-06T10:11:33Z</time>
      </trkpt>
      <trkpt lat="43.07418" lon="2.37274">
        <ele>306.3173</ele>
        <time>2012-05-06T10:11:43Z</time>
      </trkpt>
      <trkpt lat="43.07406" lon="2.37265">
        <ele>305.8367</ele>
        <time>2012-05-06T10:11:47Z</time>
      </trkpt>
      <trkpt lat="43.07397" lon="2.37256">
        <ele>305.356</ele>
        <time>2012-05-06T10:11:51Z</time>
      </trkpt>
      <trkpt lat="43.07391" lon="2.37254">
        <ele>304.3947</ele>
        <time>2012-05-06T10:11:53Z</time>
      </trkpt>
      <trkpt lat="43.07376" lon="2.37238">
        <ele>304.8752</ele>
        <time>2012-05-06T10:12:00Z</time>
      </trkpt>
      <trkpt lat="43.07358" lon="2.37234">
        <ele>307.2786</ele>
        <time>2012-05-06T10:12:14Z</time>
      </trkpt>
      <trkpt lat="43.07346" lon="2.37236">
        <ele>309.2012</ele>
        <time>2012-05-06T10:12:23Z</time>
      </trkpt>
      <trkpt lat="43.07339" lon="2.37232">
        <ele>309.6819</ele>
        <time>2012-05-06T10:12:27Z</time>
      </trkpt>
      <trkpt lat="43.07324" lon="2.37229">
        <ele>313.0465</ele>
        <time>2012-05-06T10:12:36Z</time>
      </trkpt>
      <trkpt lat="43.07323" lon="2.37229">
        <ele>313.0465</ele>
        <time>2012-05-06T10:12:37Z</time>
      </trkpt>
      <trkpt lat="43.07308" lon="2.37222">
        <ele>316.411</ele>
        <time>2012-05-06T10:12:50Z</time>
      </trkpt>
      <trkpt lat="43.0729" lon="2.37218">
        <ele>319.295</ele>
        <time>2012-05-06T10:13:08Z</time>
      </trkpt>
      <trkpt lat="43.07276" lon="2.37209">
        <ele>322.6597</ele>
        <time>2012-05-06T10:13:19Z</time>
      </trkpt>
      <trkpt lat="43.07265" lon="2.37203">
        <ele>325.063</ele>
        <time>2012-05-06T10:13:28Z</time>
      </trkpt>
      <trkpt lat="43.07242" lon="2.37189">
        <ele>328.4276</ele>
        <time>2012-05-06T10:13:49Z</time>
      </trkpt>
      <trkpt lat="43.07226" lon="2.37179">
        <ele>331.7921</ele>
        <time>2012-05-06T10:14:04Z</time>
      </trkpt>
      <trkpt lat="43.07204" lon="2.37168">
        <ele>335.1567</ele>
        <time>2012-05-06T10:14:20Z</time>
      </trkpt>
      <trkpt lat="43.07173" lon="2.37152">
        <ele>337.5601</ele>
        <time>2012-05-06T10:14:45Z</time>
      </trkpt>
      <trkpt lat="43.07168" lon="2.37144">
        <ele>338.0408</ele>
        <time>2012-05-06T10:14:51Z</time>
      </trkpt>
      <trkpt lat="43.0715" lon="2.37118">
        <ele>340.9247</ele>
        <time>2012-05-06T10:15:07Z</time>
      </trkpt>
      <trkpt lat="43.07142" lon="2.37105">
        <ele>340.4441</ele>
        <time>2012-05-06T10:15:15Z</time>
      </trkpt>
      <trkpt lat="43.07141" lon="2.37095">
        <ele>342.3667</ele>
        <time>2012-05-06T10:15:31Z</time>
      </trkpt>
      <trkpt lat="43.07141" lon="2.37094">
        <ele>342.8473</ele>
        <time>2012-05-06T10:15:33Z</time>
      </trkpt>
      <trkpt lat="43.07132" lon="2.37079">
        <ele>344.77</ele>
        <time>2012-05-06T10:15:55Z</time>
      </trkpt>
      <trkpt lat="43.07126" lon="2.37073">
        <ele>345.2506</ele>
        <time>2012-05-06T10:16:02Z</time>
      </trkpt>
      <trkpt lat="43.07115" lon="2.37077">
        <ele>344.2894</ele>
        <time>2012-05-06T10:16:08Z</time>
      </trkpt>
      <trkpt lat="43.07101" lon="2.37077">
        <ele>346.6926</ele>
        <time>2012-05-06T10:16:16Z</time>
      </trkpt>
      <trkpt lat="43.07095" lon="2.37082">
        <ele>347.6539</ele>
        <time>2012-05-06T10:16:21Z</time>
      </trkpt>
      <trkpt lat="43.07088" lon="2.37092">
        <ele>349.5765</ele>
        <time>2012-05-06T10:16:30Z</time>
      </trkpt>
      <trkpt lat="43.07071" lon="2.3709">
        <ele>351.9799</ele>
        <time>2012-05-06T10:16:39Z</time>
      </trkpt>
      <trkpt lat="43.07056" lon="2.37099">
        <ele>355.3445</ele>
        <time>2012-05-06T10:16:52Z</time>
      </trkpt>
      <trkpt lat="43.07042" lon="2.37113">
        <ele>357.7478</ele>
        <time>2012-05-06T10:17:06Z</time>
      </trkpt>
      <trkpt lat="43.07013" lon="2.37122">
        <ele>361.1124</ele>
        <time>2012-05-06T10:17:23Z</time>
      </trkpt>
      <trkpt lat="43.06988" lon="2.37133">
        <ele>363.035</ele>
        <time>2012-05-06T10:17:40Z</time>
      </trkpt>
      <trkpt lat="43.06984" lon="2.37139">
        <ele>362.5543</ele>
        <time>2012-05-06T10:17:43Z</time>
      </trkpt>
      <trkpt lat="43.06962" lon="2.3715">
        <ele>362.5543</ele>
        <time>2012-05-06T10:17:55Z</time>
      </trkpt>
      <trkpt lat="43.06938" lon="2.37146">
        <ele>365.9189</ele>
        <time>2012-05-06T10:18:11Z</time>
      </trkpt>
      <trkpt lat="43.06919" lon="2.37141">
        <ele>366.8802</ele>
        <time>2012-05-06T10:18:23Z</time>
      </trkpt>
      <trkpt lat="43.06898" lon="2.37134">
        <ele>367.8416</ele>
        <time>2012-05-06T10:18:37Z</time>
      </trkpt>
      <trkpt lat="43.0689" lon="2.3713">
        <ele>368.3223</ele>
        <time>2012-05-06T10:18:40Z</time>
      </trkpt>
      <trkpt lat="43.06884" lon="2.37128">
        <ele>368.3223</ele>
        <time>2012-05-06T10:18:44Z</time>
      </trkpt>
      <trkpt lat="43.06875" lon="2.37122">
        <ele>371.2063</ele>
        <time>2012-05-06T10:18:55Z</time>
      </trkpt>
      <trkpt lat="43.06875" lon="2.37121">
        <ele>371.6869</ele>
        <time>2012-05-06T10:18:58Z</time>
      </trkpt>
      <trkpt lat="43.06867" lon="2.37121">
        <ele>372.6482</ele>
        <time>2012-05-06T10:19:15Z</time>
      </trkpt>
      <trkpt lat="43.06867" lon="2.37121">
        <ele>372.6482</ele>
        <time>2012-05-06T10:20:08Z</time>
      </trkpt>
      <trkpt lat="43.06878" lon="2.37111">
        <ele>375.0515</ele>
        <time>2012-05-06T10:20:20Z</time>
      </trkpt>
      <trkpt lat="43.06883" lon="2.371">
        <ele>377.4548</ele>
        <time>2012-05-06T10:20:27Z</time>
      </trkpt>
      <trkpt lat="43.06888" lon="2.37096">
        <ele>379.858</ele>
        <time>2012-05-06T10:20:34Z</time>
      </trkpt>
      <trkpt lat="43.06903" lon="2.37082">
        <ele>383.7032</ele>
        <time>2012-05-06T10:20:47Z</time>
      </trkpt>
      <trkpt lat="43.06907" lon="2.3708">
        <ele>384.1841</ele>
        <time>2012-05-06T10:20:52Z</time>
      </trkpt>
      <trkpt lat="43.06943" lon="2.37069">
        <ele>385.626</ele>
        <time>2012-05-06T10:21:11Z</time>
      </trkpt>
      <trkpt lat="43.06972" lon="2.37067">
        <ele>388.0293</ele>
        <time>2012-05-06T10:21:25Z</time>
      </trkpt>
      <trkpt lat="43.06994" lon="2.3707">
        <ele>391.8745</ele>
        <time>2012-05-06T10:21:40Z</time>
      </trkpt>
      <trkpt lat="43.07009" lon="2.37059">
        <ele>391.3938</ele>
        <time>2012-05-06T10:21:47Z</time>
      </trkpt>
      <trkpt lat="43.07034" lon="2.37028">
        <ele>388.0293</ele>
        <time>2012-05-06T10:21:54Z</time>
      </trkpt>
      <trkpt lat="43.07037" lon="2.37024">
        <ele>388.0293</ele>
        <time>2012-05-06T10:21:55Z</time>
      </trkpt>
      <trkpt lat="43.07058" lon="2.37002">
        <ele>389.4712</ele>
        <time>2012-05-06T10:22:07Z</time>
      </trkpt>
      <trkpt lat="43.07088" lon="2.36985">
        <ele>392.3553</ele>
        <time>2012-05-06T10:22:26Z</time>
      </trkpt>
      <trkpt lat="43.07106" lon="2.36955">
        <ele>395.7198</ele>
        <time>2012-05-06T10:22:42Z</time>
      </trkpt>
      <trkpt lat="43.07118" lon="2.36944">
        <ele>397.1617</ele>
        <time>2012-05-06T10:22:56Z</time>
      </trkpt>
      <trkpt lat="43.07125" lon="2.36943">
        <ele>397.1617</ele>
        <time>2012-05-06T10:23:00Z</time>
      </trkpt>
      <trkpt lat="43.07128" lon="2.36945">
        <ele>397.1617</ele>
        <time>2012-05-06T10:23:02Z</time>
      </trkpt>
      <trkpt lat="43.07131" lon="2.36945">
        <ele>396.6812</ele>
        <time>2012-05-06T10:23:04Z</time>
      </trkpt>
      <trkpt lat="43.07136" lon="2.36946">
        <ele>398.1232</ele>
        <time>2012-05-06T10:23:06Z</time>
      </trkpt>
      <trkpt lat="43.0714" lon="2.36945">
        <ele>398.6038</ele>
        <time>2012-05-06T10:23:08Z</time>
      </trkpt>
      <trkpt lat="43.07161" lon="2.36951">
        <ele>400.5265</ele>
        <time>2012-05-06T10:23:21Z</time>
      </trkpt>
      <trkpt lat="43.07172" lon="2.36957">
        <ele>401.9685</ele>
        <time>2012-05-06T10:23:30Z</time>
      </trkpt>
      <trkpt lat="43.07178" lon="2.36959">
        <ele>402.4491</ele>
        <time>2012-05-06T10:23:35Z</time>
      </trkpt>
      <trkpt lat="43.07185" lon="2.36963">
        <ele>403.8911</ele>
        <time>2012-05-06T10:23:42Z</time>
      </trkpt>
      <trkpt lat="43.07196" lon="2.36967">
        <ele>405.333</ele>
        <time>2012-05-06T10:23:50Z</time>
      </trkpt>
      <trkpt lat="43.07201" lon="2.36972">
        <ele>406.2943</ele>
        <time>2012-05-06T10:23:55Z</time>
      </trkpt>
      <trkpt lat="43.07214" lon="2.36986">
        <ele>409.6591</ele>
        <time>2012-05-06T10:24:11Z</time>
      </trkpt>
      <trkpt lat="43.07242" lon="2.37008">
        <ele>412.5428</ele>
        <time>2012-05-06T10:24:29Z</time>
      </trkpt>
      <trkpt lat="43.07257" lon="2.37032">
        <ele>412.0623</ele>
        <time>2012-05-06T10:24:39Z</time>
      </trkpt>
      <trkpt lat="43.07276" lon="2.37032">
        <ele>411.5817</ele>
        <time>2012-05-06T10:24:43Z</time>
      </trkpt>
      <trkpt lat="43.07288" lon="2.37025">
        <ele>410.6202</ele>
        <time>2012-05-06T10:24:45Z</time>
      </trkpt>
      <trkpt lat="43.07309" lon="2.37018">
        <ele>408.6976</ele>
        <time>2012-05-06T10:24:48Z</time>
      </trkpt>
      <trkpt lat="43.0732" lon="2.3701">
        <ele>405.8137</ele>
        <time>2012-05-06T10:24:50Z</time>
      </trkpt>
      <trkpt lat="43.07326" lon="2.37008">
        <ele>405.8137</ele>
        <time>2012-05-06T10:24:51Z</time>
      </trkpt>
      <trkpt lat="43.07332" lon="2.37006">
        <ele>404.8523</ele>
        <time>2012-05-06T10:24:52Z</time>
      </trkpt>
      <trkpt lat="43.07353" lon="2.37005">
        <ele>404.8523</ele>
        <time>2012-05-06T10:24:57Z</time>
      </trkpt>
      <trkpt lat="43.07362" lon="2.37011">
        <ele>406.2943</ele>
        <time>2012-05-06T10:25:02Z</time>
      </trkpt>
      <trkpt lat="43.07389" lon="2.3702">
        <ele>406.2943</ele>
        <time>2012-05-06T10:25:12Z</time>
      </trkpt>
      <trkpt lat="43.07406" lon="2.37023">
        <ele>406.7749</ele>
        <time>2012-05-06T10:25:18Z</time>
      </trkpt>
      <trkpt lat="43.07419" lon="2.37034">
        <ele>406.2943</ele>
        <time>2012-05-06T10:25:23Z</time>
      </trkpt>
      <trkpt lat="43.07449" lon="2.37031">
        <ele>406.7749</ele>
        <time>2012-05-06T10:25:33Z</time>
      </trkpt>
      <trkpt lat="43.0746" lon="2.37033">
        <ele>407.7363</ele>
        <time>2012-05-06T10:25:38Z</time>
      </trkpt>
      <trkpt lat="43.07486" lon="2.37068">
        <ele>409.6591</ele>
        <time>2012-05-06T10:25:55Z</time>
      </trkpt>
      <trkpt lat="43.07491" lon="2.37072">
        <ele>410.1396</ele>
        <time>2012-05-06T10:25:57Z</time>
      </trkpt>
      <trkpt lat="43.07499" lon="2.37074">
        <ele>411.101</ele>
        <time>2012-05-06T10:26:01Z</time>
      </trkpt>
      <trkpt lat="43.07527" lon="2.37061">
        <ele>412.0623</ele>
        <time>2012-05-06T10:26:17Z</time>
      </trkpt>
      <trkpt lat="43.07555" lon="2.37064">
        <ele>411.101</ele>
        <time>2012-05-06T10:26:26Z</time>
      </trkpt>
      <trkpt lat="43.07596" lon="2.37068">
        <ele>410.1396</ele>
        <time>2012-05-06T10:26:34Z</time>
      </trkpt>
      <trkpt lat="43.07629" lon="2.37057">
        <ele>409.6591</ele>
        <time>2012-05-06T10:26:43Z</time>
      </trkpt>
      <trkpt lat="43.07651" lon="2.3706">
        <ele>408.6976</ele>
        <time>2012-05-06T10:26:48Z</time>
      </trkpt>
      <trkpt lat="43.07672" lon="2.37048">
        <ele>408.6976</ele>
        <time>2012-05-06T10:26:53Z</time>
      </trkpt>
      <trkpt lat="43.07681" lon="2.37041">
        <ele>409.1783</ele>
        <time>2012-05-06T10:26:57Z</time>
      </trkpt>
      <trkpt lat="43.077" lon="2.3703">
        <ele>408.217</ele>
        <time>2012-05-06T10:27:02Z</time>
      </trkpt>
      <trkpt lat="43.07721" lon="2.37023">
        <ele>407.7363</ele>
        <time>2012-05-06T10:27:06Z</time>
      </trkpt>
      <trkpt lat="43.07756" lon="2.37026">
        <ele>409.1783</ele>
        <time>2012-05-06T10:27:16Z</time>
      </trkpt>
      <trkpt lat="43.07769" lon="2.37028">
        <ele>410.6202</ele>
        <time>2012-05-06T10:27:25Z</time>
      </trkpt>
      <trkpt lat="43.0779" lon="2.37007">
        <ele>412.5428</ele>
        <time>2012-05-06T10:27:38Z</time>
      </trkpt>
      <trkpt lat="43.07808" lon="2.3698">
        <ele>414.9462</ele>
        <time>2012-05-06T10:27:52Z</time>
      </trkpt>
      <trkpt lat="43.07852" lon="2.36941">
        <ele>413.9849</ele>
        <time>2012-05-06T10:28:06Z</time>
      </trkpt>
      <trkpt lat="43.07872" lon="2.36926">
        <ele>414.4655</ele>
        <time>2012-05-06T10:28:12Z</time>
      </trkpt>
      <trkpt lat="43.07886" lon="2.36926">
        <ele>413.9849</ele>
        <time>2012-05-06T10:28:16Z</time>
      </trkpt>
      <trkpt lat="43.07892" lon="2.36925">
        <ele>413.9849</ele>
        <time>2012-05-06T10:28:18Z</time>
      </trkpt>
      <trkpt lat="43.07934" lon="2.36958">
        <ele>415.4269</ele>
        <time>2012-05-06T10:28:33Z</time>
      </trkpt>
      <trkpt lat="43.07984" lon="2.36981">
        <ele>415.4269</ele>
        <time>2012-05-06T10:28:47Z</time>
      </trkpt>
      <trkpt lat="43.07994" lon="2.36996">
        <ele>415.4269</ele>
        <time>2012-05-06T10:28:51Z</time>
      </trkpt>
      <trkpt lat="43.08029" lon="2.37023">
        <ele>413.5043</ele>
        <time>2012-05-06T10:28:57Z</time>
      </trkpt>
      <trkpt lat="43.08044" lon="2.3703">
        <ele>410.6202</ele>
        <time>2012-05-06T10:29:01Z</time>
      </trkpt>
      <trkpt lat="43.08045" lon="2.3703">
        <ele>411.101</ele>
        <time>2012-05-06T10:29:02Z</time>
      </trkpt>
      <trkpt lat="43.08051" lon="2.37023">
        <ele>413.9849</ele>
        <time>2012-05-06T10:29:17Z</time>
      </trkpt>
      <trkpt lat="43.0805" lon="2.37016">
        <ele>416.8689</ele>
        <time>2012-05-06T10:29:28Z</time>
      </trkpt>
      <trkpt lat="43.0805" lon="2.37015">
        <ele>416.8689</ele>
        <time>2012-05-06T10:29:29Z</time>
      </trkpt>
      <trkpt lat="43.0805" lon="2.37014">
        <ele>416.8689</ele>
        <time>2012-05-06T10:29:30Z</time>
      </trkpt>
      <trkpt lat="43.08051" lon="2.3701">
        <ele>417.8302</ele>
        <time>2012-05-06T10:29:33Z</time>
      </trkpt>
      <trkpt lat="43.08055" lon="2.37004">
        <ele>418.7915</ele>
        <time>2012-05-06T10:29:38Z</time>
      </trkpt>
      <trkpt lat="43.08059" lon="2.36997">
        <ele>419.2722</ele>
        <time>2012-05-06T10:29:45Z</time>
      </trkpt>
      <trkpt lat="43.08064" lon="2.36992">
        <ele>420.7141</ele>
        <time>2012-05-06T10:29:51Z</time>
      </trkpt>
      <trkpt lat="43.0807" lon="2.36991">
        <ele>421.6754</ele>
        <time>2012-05-06T10:29:56Z</time>
      </trkpt>
      <trkpt lat="43.0808" lon="2.36992">
        <ele>420.7141</ele>
        <time>2012-05-06T10:30:00Z</time>
      </trkpt>
      <trkpt lat="43.0809" lon="2.36985">
        <ele>420.2334</ele>
        <time>2012-05-06T10:30:08Z</time>
      </trkpt>
      <trkpt lat="43.08089" lon="2.3698">
        <ele>420.7141</ele>
        <time>2012-05-06T10:30:11Z</time>
      </trkpt>
      <trkpt lat="43.0809" lon="2.36977">
        <ele>421.6754</ele>
        <time>2012-05-06T10:30:13Z</time>
      </trkpt>
      <trkpt lat="43.08092" lon="2.36972">
        <ele>423.1174</ele>
        <time>2012-05-06T10:30:17Z</time>
      </trkpt>
      <trkpt lat="43.081" lon="2.36954">
        <ele>426.4821</ele>
        <time>2012-05-06T10:30:34Z</time>
      </trkpt>
      <trkpt lat="43.08103" lon="2.36952">
        <ele>426.9628</ele>
        <time>2012-05-06T10:30:40Z</time>
      </trkpt>
      <trkpt lat="43.08126" lon="2.36941">
        <ele>430.3273</ele>
        <time>2012-05-06T10:30:56Z</time>
      </trkpt>
      <trkpt lat="43.0815" lon="2.36945">
        <ele>432.25</ele>
        <time>2012-05-06T10:31:13Z</time>
      </trkpt>
      <trkpt lat="43.08153" lon="2.36947">
        <ele>431.7692</ele>
        <time>2012-05-06T10:31:15Z</time>
      </trkpt>
      <trkpt lat="43.08161" lon="2.36946">
        <ele>431.2886</ele>
        <time>2012-05-06T10:31:19Z</time>
      </trkpt>
      <trkpt lat="43.08189" lon="2.36919">
        <ele>432.7307</ele>
        <time>2012-05-06T10:31:32Z</time>
      </trkpt>
      <trkpt lat="43.08223" lon="2.36913">
        <ele>435.1339</ele>
        <time>2012-05-06T10:31:47Z</time>
      </trkpt>
      <trkpt lat="43.08233" lon="2.36914">
        <ele>436.0952</ele>
        <time>2012-05-06T10:31:52Z</time>
      </trkpt>
      <trkpt lat="43.08258" lon="2.3691">
        <ele>436.5759</ele>
        <time>2012-05-06T10:32:02Z</time>
      </trkpt>
      <trkpt lat="43.08266" lon="2.3691">
        <ele>437.0565</ele>
        <time>2012-05-06T10:32:06Z</time>
      </trkpt>
      <trkpt lat="43.08283" lon="2.36909">
        <ele>439.9404</ele>
        <time>2012-05-06T10:32:16Z</time>
      </trkpt>
      <trkpt lat="43.0829" lon="2.36904">
        <ele>441.3824</ele>
        <time>2012-05-06T10:32:22Z</time>
      </trkpt>
      <trkpt lat="43.08307" lon="2.36905">
        <ele>445.7084</ele>
        <time>2012-05-06T10:32:37Z</time>
      </trkpt>
      <trkpt lat="43.08322" lon="2.36911">
        <ele>448.5924</ele>
        <time>2012-05-06T10:32:49Z</time>
      </trkpt>
      <trkpt lat="43.08335" lon="2.36931">
        <ele>446.6697</ele>
        <time>2012-05-06T10:33:00Z</time>
      </trkpt>
      <trkpt lat="43.0834" lon="2.36935">
        <ele>447.631</ele>
        <time>2012-05-06T10:33:03Z</time>
      </trkpt>
      <trkpt lat="43.08343" lon="2.36942">
        <ele>448.1118</ele>
        <time>2012-05-06T10:33:07Z</time>
      </trkpt>
      <trkpt lat="43.08361" lon="2.36959">
        <ele>445.7084</ele>
        <time>2012-05-06T10:33:22Z</time>
      </trkpt>
      <trkpt lat="43.08382" lon="2.36967">
        <ele>445.2277</ele>
        <time>2012-05-06T10:33:37Z</time>
      </trkpt>
      <trkpt lat="43.08387" lon="2.36969">
        <ele>444.2665</ele>
        <time>2012-05-06T10:33:39Z</time>
      </trkpt>
      <trkpt lat="43.08393" lon="2.3697">
        <ele>442.8245</ele>
        <time>2012-05-06T10:33:41Z</time>
      </trkpt>
      <trkpt lat="43.08397" lon="2.36968">
        <ele>441.3824</ele>
        <time>2012-05-06T10:33:43Z</time>
      </trkpt>
      <trkpt lat="43.08401" lon="2.36968">
        <ele>441.3824</ele>
        <time>2012-05-06T10:33:46Z</time>
      </trkpt>
      <trkpt lat="43.08406" lon="2.3697">
        <ele>440.9019</ele>
        <time>2012-05-06T10:33:48Z</time>
      </trkpt>
      <trkpt lat="43.08415" lon="2.36974">
        <ele>438.4985</ele>
        <time>2012-05-06T10:33:53Z</time>
      </trkpt>
      <trkpt lat="43.08432" lon="2.36972">
        <ele>437.5371</ele>
        <time>2012-05-06T10:33:57Z</time>
      </trkpt>
      <trkpt lat="43.08454" lon="2.36965">
        <ele>435.1339</ele>
        <time>2012-05-06T10:34:02Z</time>
      </trkpt>
      <trkpt lat="43.08477" lon="2.36959">
        <ele>433.6919</ele>
        <time>2012-05-06T10:34:10Z</time>
      </trkpt>
      <trkpt lat="43.08498" lon="2.36956">
        <ele>436.5759</ele>
        <time>2012-05-06T10:34:24Z</time>
      </trkpt>
      <trkpt lat="43.08504" lon="2.36956">
        <ele>438.0178</ele>
        <time>2012-05-06T10:34:29Z</time>
      </trkpt>
      <trkpt lat="43.08508" lon="2.36959">
        <ele>439.9404</ele>
        <time>2012-05-06T10:34:33Z</time>
      </trkpt>
      <trkpt lat="43.08513" lon="2.36963">
        <ele>441.3824</ele>
        <time>2012-05-06T10:34:37Z</time>
      </trkpt>
      <trkpt lat="43.0852" lon="2.36967">
        <ele>443.7858</ele>
        <time>2012-05-06T10:34:50Z</time>
      </trkpt>
      <trkpt lat="43.08526" lon="2.3697">
        <ele>447.1503</ele>
        <time>2012-05-06T10:35:03Z</time>
      </trkpt>
      <trkpt lat="43.08533" lon="2.36968">
        <ele>450.515</ele>
        <time>2012-05-06T10:35:17Z</time>
      </trkpt>
      <trkpt lat="43.08537" lon="2.36961">
        <ele>451.957</ele>
        <time>2012-05-06T10:35:46Z</time>
      </trkpt>
      <trkpt lat="43.08536" lon="2.36961">
        <ele>451.957</ele>
        <time>2012-05-06T10:36:06Z</time>
      </trkpt>
      <trkpt lat="43.08536" lon="2.36961">
        <ele>451.957</ele>
        <time>2012-05-06T10:37:14Z</time>
      </trkpt>
      <trkpt lat="43.08537" lon="2.3696">
        <ele>452.4376</ele>
        <time>2012-05-06T10:37:33Z</time>
      </trkpt>
      <trkpt lat="43.08543" lon="2.36961">
        <ele>453.8796</ele>
        <time>2012-05-06T10:37:40Z</time>
      </trkpt>
      <trkpt lat="43.0855" lon="2.36962">
        <ele>457.2443</ele>
        <time>2012-05-06T10:37:50Z</time>
      </trkpt>
      <trkpt lat="43.08553" lon="2.36961">
        <ele>456.7635</ele>
        <time>2012-05-06T10:38:00Z</time>
      </trkpt>
      <trkpt lat="43.08565" lon="2.36964">
        <ele>456.7635</ele>
        <time>2012-05-06T10:38:13Z</time>
      </trkpt>
      <trkpt lat="43.08566" lon="2.36965">
        <ele>456.7635</ele>
        <time>2012-05-06T10:38:14Z</time>
      </trkpt>
      <trkpt lat="43.08575" lon="2.36966">
        <ele>454.8408</ele>
        <time>2012-05-06T10:38:19Z</time>
      </trkpt>
      <trkpt lat="43.08579" lon="2.36968">
        <ele>453.8796</ele>
        <time>2012-05-06T10:38:21Z</time>
      </trkpt>
      <trkpt lat="43.08595" lon="2.36973">
        <ele>453.8796</ele>
        <time>2012-05-06T10:38:28Z</time>
      </trkpt>
      <trkpt lat="43.08613" lon="2.36978">
        <ele>454.3602</ele>
        <time>2012-05-06T10:38:34Z</time>
      </trkpt>
      <trkpt lat="43.08627" lon="2.36984">
        <ele>453.3989</ele>
        <time>2012-05-06T10:38:37Z</time>
      </trkpt>
      <trkpt lat="43.08639" lon="2.36994">
        <ele>450.515</ele>
        <time>2012-05-06T10:38:40Z</time>
      </trkpt>
      <trkpt lat="43.0865" lon="2.36998">
        <ele>447.631</ele>
        <time>2012-05-06T10:38:43Z</time>
      </trkpt>
      <trkpt lat="43.08659" lon="2.36998">
        <ele>445.7084</ele>
        <time>2012-05-06T10:38:45Z</time>
      </trkpt>
      <trkpt lat="43.08666" lon="2.37002">
        <ele>442.8245</ele>
        <time>2012-05-06T10:38:47Z</time>
      </trkpt>
      <trkpt lat="43.08678" lon="2.3701">
        <ele>439.9404</ele>
        <time>2012-05-06T10:38:50Z</time>
      </trkpt>
      <trkpt lat="43.08691" lon="2.37012">
        <ele>435.1339</ele>
        <time>2012-05-06T10:38:53Z</time>
      </trkpt>
      <trkpt lat="43.08703" lon="2.37019">
        <ele>433.2113</ele>
        <time>2012-05-06T10:38:56Z</time>
      </trkpt>
      <trkpt lat="43.08714" lon="2.37018">
        <ele>430.3273</ele>
        <time>2012-05-06T10:38:58Z</time>
      </trkpt>
      <trkpt lat="43.08722" lon="2.37016">
        <ele>428.8854</ele>
        <time>2012-05-06T10:39:00Z</time>
      </trkpt>
      <trkpt lat="43.0873" lon="2.37012">
        <ele>426.0013</ele>
        <time>2012-05-06T10:39:03Z</time>
      </trkpt>
      <trkpt lat="43.08742" lon="2.37006">
        <ele>424.5594</ele>
        <time>2012-05-06T10:39:08Z</time>
      </trkpt>
      <trkpt lat="43.08749" lon="2.37001">
        <ele>424.0787</ele>
        <time>2012-05-06T10:39:10Z</time>
      </trkpt>
      <trkpt lat="43.08765" lon="2.37013">
        <ele>421.6754</ele>
        <time>2012-05-06T10:39:14Z</time>
      </trkpt>
      <trkpt lat="43.08777" lon="2.3702">
        <ele>414.9462</ele>
        <time>2012-05-06T10:39:16Z</time>
      </trkpt>
      <trkpt lat="43.08782" lon="2.37024">
        <ele>414.9462</ele>
        <time>2012-05-06T10:39:17Z</time>
      </trkpt>
      <trkpt lat="43.0879" lon="2.37033">
        <ele>412.5428</ele>
        <time>2012-05-06T10:39:19Z</time>
      </trkpt>
      <trkpt lat="43.08801" lon="2.37054">
        <ele>411.5817</ele>
        <time>2012-05-06T10:39:25Z</time>
      </trkpt>
      <trkpt lat="43.08814" lon="2.3707">
        <ele>410.1396</ele>
        <time>2012-05-06T10:39:31Z</time>
      </trkpt>
      <trkpt lat="43.08828" lon="2.37082">
        <ele>406.7749</ele>
        <time>2012-05-06T10:39:35Z</time>
      </trkpt>
      <trkpt lat="43.08831" lon="2.37088">
        <ele>403.8911</ele>
        <time>2012-05-06T10:39:37Z</time>
      </trkpt>
      <trkpt lat="43.08847" lon="2.37103">
        <ele>401.9685</ele>
        <time>2012-05-06T10:39:42Z</time>
      </trkpt>
      <trkpt lat="43.08849" lon="2.37105">
        <ele>401.0071</ele>
        <time>2012-05-06T10:39:43Z</time>
      </trkpt>
      <trkpt lat="43.08854" lon="2.37111">
        <ele>399.5651</ele>
        <time>2012-05-06T10:39:45Z</time>
      </trkpt>
      <trkpt lat="43.08866" lon="2.37121">
        <ele>396.6812</ele>
        <time>2012-05-06T10:39:49Z</time>
      </trkpt>
      <trkpt lat="43.08875" lon="2.37125">
        <ele>394.7585</ele>
        <time>2012-05-06T10:39:51Z</time>
      </trkpt>
      <trkpt lat="43.08882" lon="2.37134">
        <ele>390.9132</ele>
        <time>2012-05-06T10:39:54Z</time>
      </trkpt>
      <trkpt lat="43.08888" lon="2.3714">
        <ele>389.4712</ele>
        <time>2012-05-06T10:39:56Z</time>
      </trkpt>
      <trkpt lat="43.08895" lon="2.37146">
        <ele>386.5874</ele>
        <time>2012-05-06T10:39:58Z</time>
      </trkpt>
      <trkpt lat="43.08898" lon="2.37148">
        <ele>383.7032</ele>
        <time>2012-05-06T10:39:59Z</time>
      </trkpt>
      <trkpt lat="43.08904" lon="2.37151">
        <ele>381.3</ele>
        <time>2012-05-06T10:40:01Z</time>
      </trkpt>
      <trkpt lat="43.08906" lon="2.37153">
        <ele>379.3774</ele>
        <time>2012-05-06T10:40:02Z</time>
      </trkpt>
      <trkpt lat="43.0891" lon="2.37161">
        <ele>377.4548</ele>
        <time>2012-05-06T10:40:05Z</time>
      </trkpt>
      <trkpt lat="43.08911" lon="2.37163">
        <ele>376.4935</ele>
        <time>2012-05-06T10:40:06Z</time>
      </trkpt>
      <trkpt lat="43.08917" lon="2.37166">
        <ele>376.0128</ele>
        <time>2012-05-06T10:40:09Z</time>
      </trkpt>
      <trkpt lat="43.08941" lon="2.37231">
        <ele>376.4935</ele>
        <time>2012-05-06T10:40:21Z</time>
      </trkpt>
      <trkpt lat="43.08953" lon="2.37244">
        <ele>376.4935</ele>
        <time>2012-05-06T10:40:24Z</time>
      </trkpt>
      <trkpt lat="43.0898" lon="2.37249">
        <ele>373.1289</ele>
        <time>2012-05-06T10:40:31Z</time>
      </trkpt>
      <trkpt lat="43.08982" lon="2.3725">
        <ele>371.6869</ele>
        <time>2012-05-06T10:40:32Z</time>
      </trkpt>
      <trkpt lat="43.08993" lon="2.37235">
        <ele>369.2837</ele>
        <time>2012-05-06T10:40:38Z</time>
      </trkpt>
      <trkpt lat="43.09008" lon="2.37233">
        <ele>366.8802</ele>
        <time>2012-05-06T10:40:45Z</time>
      </trkpt>
      <trkpt lat="43.09014" lon="2.37234">
        <ele>365.4384</ele>
        <time>2012-05-06T10:40:47Z</time>
      </trkpt>
      <trkpt lat="43.09018" lon="2.37238">
        <ele>363.9963</ele>
        <time>2012-05-06T10:40:49Z</time>
      </trkpt>
      <trkpt lat="43.09019" lon="2.37242">
        <ele>362.0737</ele>
        <time>2012-05-06T10:40:50Z</time>
      </trkpt>
      <trkpt lat="43.09022" lon="2.37249">
        <ele>360.1511</ele>
        <time>2012-05-06T10:40:52Z</time>
      </trkpt>
      <trkpt lat="43.09025" lon="2.37252">
        <ele>358.709</ele>
        <time>2012-05-06T10:40:53Z</time>
      </trkpt>
      <trkpt lat="43.09029" lon="2.3726">
        <ele>356.7864</ele>
        <time>2012-05-06T10:40:56Z</time>
      </trkpt>
      <trkpt lat="43.09041" lon="2.37259">
        <ele>353.4219</ele>
        <time>2012-05-06T10:40:59Z</time>
      </trkpt>
      <trkpt lat="43.09058" lon="2.37258">
        <ele>351.9799</ele>
        <time>2012-05-06T10:41:03Z</time>
      </trkpt>
      <trkpt lat="43.09067" lon="2.37266">
        <ele>349.0958</ele>
        <time>2012-05-06T10:41:06Z</time>
      </trkpt>
      <trkpt lat="43.09074" lon="2.37275">
        <ele>347.1732</ele>
        <time>2012-05-06T10:41:08Z</time>
      </trkpt>
      <trkpt lat="43.09084" lon="2.37295">
        <ele>345.2506</ele>
        <time>2012-05-06T10:41:12Z</time>
      </trkpt>
      <trkpt lat="43.09089" lon="2.37312">
        <ele>343.3279</ele>
        <time>2012-05-06T10:41:15Z</time>
      </trkpt>
      <trkpt lat="43.09107" lon="2.37368">
        <ele>340.4441</ele>
        <time>2012-05-06T10:41:23Z</time>
      </trkpt>
      <trkpt lat="43.09115" lon="2.37397">
        <ele>339.0021</ele>
        <time>2012-05-06T10:41:27Z</time>
      </trkpt>
      <trkpt lat="43.09117" lon="2.37412">
        <ele>338.0408</ele>
        <time>2012-05-06T10:41:29Z</time>
      </trkpt>
      <trkpt lat="43.09117" lon="2.37417">
        <ele>337.5601</ele>
        <time>2012-05-06T10:41:31Z</time>
      </trkpt>
      <trkpt lat="43.09118" lon="2.37435">
        <ele>334.1954</ele>
        <time>2012-05-06T10:41:36Z</time>
      </trkpt>
      <trkpt lat="43.09121" lon="2.37443">
        <ele>333.2341</ele>
        <time>2012-05-06T10:41:38Z</time>
      </trkpt>
      <trkpt lat="43.09127" lon="2.37453">
        <ele>331.7921</ele>
        <time>2012-05-06T10:41:40Z</time>
      </trkpt>
      <trkpt lat="43.09135" lon="2.37469">
        <ele>327.4662</ele>
        <time>2012-05-06T10:41:43Z</time>
      </trkpt>
      <trkpt lat="43.09147" lon="2.37492">
        <ele>324.1016</ele>
        <time>2012-05-06T10:41:47Z</time>
      </trkpt>
      <trkpt lat="43.09151" lon="2.375">
        <ele>319.7756</ele>
        <time>2012-05-06T10:41:49Z</time>
      </trkpt>
      <trkpt lat="43.09163" lon="2.37521">
        <ele>315.9304</ele>
        <time>2012-05-06T10:41:53Z</time>
      </trkpt>
      <trkpt lat="43.09164" lon="2.37527">
        <ele>315.9304</ele>
        <time>2012-05-06T10:41:54Z</time>
      </trkpt>
      <trkpt lat="43.09162" lon="2.37539">
        <ele>314.9691</ele>
        <time>2012-05-06T10:41:56Z</time>
      </trkpt>
      <trkpt lat="43.09163" lon="2.37561">
        <ele>314.0078</ele>
        <time>2012-05-06T10:41:59Z</time>
      </trkpt>
      <trkpt lat="43.09168" lon="2.37572">
        <ele>312.0852</ele>
        <time>2012-05-06T10:42:01Z</time>
      </trkpt>
      <trkpt lat="43.09172" lon="2.37576">
        <ele>310.6431</ele>
        <time>2012-05-06T10:42:02Z</time>
      </trkpt>
      <trkpt lat="43.09183" lon="2.37595">
        <ele>308.2399</ele>
        <time>2012-05-06T10:42:06Z</time>
      </trkpt>
      <trkpt lat="43.09198" lon="2.37617">
        <ele>305.8367</ele>
        <time>2012-05-06T10:42:12Z</time>
      </trkpt>
      <trkpt lat="43.09204" lon="2.37634">
        <ele>304.8752</ele>
        <time>2012-05-06T10:42:15Z</time>
      </trkpt>
      <trkpt lat="43.0921" lon="2.37637">
        <ele>302.4719</ele>
        <time>2012-05-06T10:42:17Z</time>
      </trkpt>
      <trkpt lat="43.09212" lon="2.37646">
        <ele>300.0687</ele>
        <time>2012-05-06T10:42:19Z</time>
      </trkpt>
      <trkpt lat="43.09216" lon="2.3766">
        <ele>298.6267</ele>
        <time>2012-05-06T10:42:22Z</time>
      </trkpt>
      <trkpt lat="43.09223" lon="2.37668">
        <ele>296.2235</ele>
        <time>2012-05-06T10:42:24Z</time>
      </trkpt>
      <trkpt lat="43.09225" lon="2.37672">
        <ele>293.3394</ele>
        <time>2012-05-06T10:42:25Z</time>
      </trkpt>
      <trkpt lat="43.09228" lon="2.37679">
        <ele>290.9362</ele>
        <time>2012-05-06T10:42:27Z</time>
      </trkpt>
      <trkpt lat="43.09234" lon="2.37681">
        <ele>289.0135</ele>
        <time>2012-05-06T10:42:29Z</time>
      </trkpt>
      <trkpt lat="43.09237" lon="2.37678">
        <ele>287.5714</ele>
        <time>2012-05-06T10:42:31Z</time>
      </trkpt>
      <trkpt lat="43.09237" lon="2.37678">
        <ele>288.0522</ele>
        <time>2012-05-06T10:42:58Z</time>
      </trkpt>
      <trkpt lat="43.09237" lon="2.37678">
        <ele>288.0522</ele>
        <time>2012-05-06T10:44:23Z</time>
      </trkpt>
      <trkpt lat="43.09238" lon="2.37676">
        <ele>287.5714</ele>
        <time>2012-05-06T10:44:54Z</time>
      </trkpt>
      <trkpt lat="43.09258" lon="2.37651">
        <ele>289.0135</ele>
        <time>2012-05-06T10:45:09Z</time>
      </trkpt>
      <trkpt lat="43.0925" lon="2.37584">
        <ele>289.9749</ele>
        <time>2012-05-06T10:45:27Z</time>
      </trkpt>
      <trkpt lat="43.09259" lon="2.37516">
        <ele>291.4167</ele>
        <time>2012-05-06T10:45:42Z</time>
      </trkpt>
      <trkpt lat="43.09257" lon="2.37459">
        <ele>292.8588</ele>
        <time>2012-05-06T10:45:56Z</time>
      </trkpt>
      <trkpt lat="43.09259" lon="2.37458">
        <ele>292.8588</ele>
        <time>2012-05-06T10:46:45Z</time>
      </trkpt>
      <trkpt lat="43.09259" lon="2.37459">
        <ele>293.3394</ele>
        <time>2012-05-06T10:47:00Z</time>
      </trkpt>
      <trkpt lat="43.09254" lon="2.37391">
        <ele>292.3782</ele>
        <time>2012-05-06T10:47:15Z</time>
      </trkpt>
      <trkpt lat="43.09253" lon="2.37281">
        <ele>293.3394</ele>
        <time>2012-05-06T10:47:34Z</time>
      </trkpt>
      <trkpt lat="43.09285" lon="2.37215">
        <ele>294.3008</ele>
        <time>2012-05-06T10:47:50Z</time>
      </trkpt>
      <trkpt lat="43.09304" lon="2.37206">
        <ele>293.8201</ele>
        <time>2012-05-06T10:47:54Z</time>
      </trkpt>
      <trkpt lat="43.09314" lon="2.37198">
        <ele>292.3782</ele>
        <time>2012-05-06T10:47:56Z</time>
      </trkpt>
      <trkpt lat="43.09331" lon="2.37176">
        <ele>291.8975</ele>
        <time>2012-05-06T10:48:00Z</time>
      </trkpt>
      <trkpt lat="43.09349" lon="2.37145">
        <ele>289.9749</ele>
        <time>2012-05-06T10:48:05Z</time>
      </trkpt>
      <trkpt lat="43.09353" lon="2.37139">
        <ele>289.4941</ele>
        <time>2012-05-06T10:48:06Z</time>
      </trkpt>
      <trkpt lat="43.09381" lon="2.37114">
        <ele>287.0908</ele>
        <time>2012-05-06T10:48:11Z</time>
      </trkpt>
      <trkpt lat="43.09392" lon="2.37084">
        <ele>286.1295</ele>
        <time>2012-05-06T10:48:16Z</time>
      </trkpt>
      <trkpt lat="43.09392" lon="2.37071">
        <ele>284.6876</ele>
        <time>2012-05-06T10:48:18Z</time>
      </trkpt>
      <trkpt lat="43.09391" lon="2.37007">
        <ele>282.2843</ele>
        <time>2012-05-06T10:48:26Z</time>
      </trkpt>
      <trkpt lat="43.09391" lon="2.36987">
        <ele>282.765</ele>
        <time>2012-05-06T10:48:28Z</time>
      </trkpt>
      <trkpt lat="43.09389" lon="2.36968">
        <ele>281.323</ele>
        <time>2012-05-06T10:48:30Z</time>
      </trkpt>
      <trkpt lat="43.09388" lon="2.36946">
        <ele>279.8809</ele>
        <time>2012-05-06T10:48:32Z</time>
      </trkpt>
      <trkpt lat="43.09388" lon="2.36928">
        <ele>278.439</ele>
        <time>2012-05-06T10:48:34Z</time>
      </trkpt>
      <trkpt lat="43.09388" lon="2.36921">
        <ele>278.439</ele>
        <time>2012-05-06T10:48:35Z</time>
      </trkpt>
      <trkpt lat="43.09398" lon="2.36884">
        <ele>276.0356</ele>
        <time>2012-05-06T10:48:39Z</time>
      </trkpt>
      <trkpt lat="43.09408" lon="2.36796">
        <ele>273.6324</ele>
        <time>2012-05-06T10:48:46Z</time>
      </trkpt>
      <trkpt lat="43.0941" lon="2.3676">
        <ele>271.2291</ele>
        <time>2012-05-06T10:48:49Z</time>
      </trkpt>
      <trkpt lat="43.09412" lon="2.36748">
        <ele>270.7484</ele>
        <time>2012-05-06T10:48:50Z</time>
      </trkpt>
      <trkpt lat="43.09422" lon="2.36713">
        <ele>268.8258</ele>
        <time>2012-05-06T10:48:53Z</time>
      </trkpt>
      <trkpt lat="43.09446" lon="2.36653">
        <ele>266.4225</ele>
        <time>2012-05-06T10:48:58Z</time>
      </trkpt>
      <trkpt lat="43.0946" lon="2.36601">
        <ele>262.5771</ele>
        <time>2012-05-06T10:49:02Z</time>
      </trkpt>
      <trkpt lat="43.09463" lon="2.36589">
        <ele>262.0966</ele>
        <time>2012-05-06T10:49:03Z</time>
      </trkpt>
      <trkpt lat="43.09478" lon="2.36556">
        <ele>260.174</ele>
        <time>2012-05-06T10:49:06Z</time>
      </trkpt>
      <trkpt lat="43.09498" lon="2.36505">
        <ele>255.848</ele>
        <time>2012-05-06T10:49:11Z</time>
      </trkpt>
      <trkpt lat="43.09502" lon="2.36497">
        <ele>255.848</ele>
        <time>2012-05-06T10:49:12Z</time>
      </trkpt>
      <trkpt lat="43.09506" lon="2.36485">
        <ele>253.9254</ele>
        <time>2012-05-06T10:49:14Z</time>
      </trkpt>
      <trkpt lat="43.09504" lon="2.36481">
        <ele>252.4834</ele>
        <time>2012-05-06T10:49:16Z</time>
      </trkpt>
      <trkpt lat="43.09474" lon="2.36519">
        <ele>249.5995</ele>
        <time>2012-05-06T10:49:24Z</time>
      </trkpt>
      <trkpt lat="43.09461" lon="2.36527">
        <ele>248.6382</ele>
        <time>2012-05-06T10:49:26Z</time>
      </trkpt>
      <trkpt lat="43.09442" lon="2.36516">
        <ele>247.6768</ele>
        <time>2012-05-06T10:49:29Z</time>
      </trkpt>
      <trkpt lat="43.09405" lon="2.36482">
        <ele>248.1576</ele>
        <time>2012-05-06T10:49:36Z</time>
      </trkpt>
      <trkpt lat="43.09391" lon="2.36468">
        <ele>248.6382</ele>
        <time>2012-05-06T10:49:39Z</time>
      </trkpt>
      <trkpt lat="43.09374" lon="2.36457">
        <ele>249.1188</ele>
        <time>2012-05-06T10:49:43Z</time>
      </trkpt>
      <trkpt lat="43.09345" lon="2.36458">
        <ele>250.0802</ele>
        <time>2012-05-06T10:49:51Z</time>
      </trkpt>
      <trkpt lat="43.0935" lon="2.36438">
        <ele>250.5608</ele>
        <time>2012-05-06T10:49:59Z</time>
      </trkpt>
      <trkpt lat="43.09365" lon="2.36419">
        <ele>252.964</ele>
        <time>2012-05-06T10:50:10Z</time>
      </trkpt>
      <trkpt lat="43.09367" lon="2.36388">
        <ele>255.848</ele>
        <time>2012-05-06T10:50:22Z</time>
      </trkpt>
      <trkpt lat="43.09369" lon="2.3636">
        <ele>258.7319</ele>
        <time>2012-05-06T10:50:32Z</time>
      </trkpt>
      <trkpt lat="43.09371" lon="2.36328">
        <ele>262.0966</ele>
        <time>2012-05-06T10:50:46Z</time>
      </trkpt>
      <trkpt lat="43.0937" lon="2.36275">
        <ele>264.4999</ele>
        <time>2012-05-06T10:51:02Z</time>
      </trkpt>
      <trkpt lat="43.0937" lon="2.36263">
        <ele>265.9419</ele>
        <time>2012-05-06T10:51:07Z</time>
      </trkpt>
      <trkpt lat="43.09365" lon="2.36242">
        <ele>267.8645</ele>
        <time>2012-05-06T10:51:15Z</time>
      </trkpt>
      <trkpt lat="43.09363" lon="2.36218">
        <ele>271.2291</ele>
        <time>2012-05-06T10:51:25Z</time>
      </trkpt>
      <trkpt lat="43.09359" lon="2.36208">
        <ele>273.1519</ele>
        <time>2012-05-06T10:51:31Z</time>
      </trkpt>
      <trkpt lat="43.09355" lon="2.36197">
        <ele>274.5938</ele>
        <time>2012-05-06T10:51:37Z</time>
      </trkpt>
      <trkpt lat="43.09353" lon="2.36175">
        <ele>276.9971</ele>
        <time>2012-05-06T10:51:47Z</time>
      </trkpt>
      <trkpt lat="43.09353" lon="2.3617">
        <ele>276.9971</ele>
        <time>2012-05-06T10:51:49Z</time>
      </trkpt>
      <trkpt lat="43.09353" lon="2.36146">
        <ele>278.9197</ele>
        <time>2012-05-06T10:52:02Z</time>
      </trkpt>
      <trkpt lat="43.09389" lon="2.36122">
        <ele>280.8424</ele>
        <time>2012-05-06T10:52:18Z</time>
      </trkpt>
      <trkpt lat="43.0942" lon="2.36119">
        <ele>283.7262</ele>
        <time>2012-05-06T10:52:34Z</time>
      </trkpt>
      <trkpt lat="43.09447" lon="2.3611">
        <ele>285.6488</ele>
        <time>2012-05-06T10:52:46Z</time>
      </trkpt>
      <trkpt lat="43.09485" lon="2.36095">
        <ele>287.0908</ele>
        <time>2012-05-06T10:53:01Z</time>
      </trkpt>
      <trkpt lat="43.09525" lon="2.36078">
        <ele>289.0135</ele>
        <time>2012-05-06T10:53:17Z</time>
      </trkpt>
      <trkpt lat="43.09556" lon="2.36058">
        <ele>290.9362</ele>
        <time>2012-05-06T10:53:32Z</time>
      </trkpt>
      <trkpt lat="43.09563" lon="2.36047">
        <ele>291.4167</ele>
        <time>2012-05-06T10:53:36Z</time>
      </trkpt>
      <trkpt lat="43.09568" lon="2.36019">
        <ele>289.9749</ele>
        <time>2012-05-06T10:53:40Z</time>
      </trkpt>
      <trkpt lat="43.09572" lon="2.35993">
        <ele>288.0522</ele>
        <time>2012-05-06T10:53:43Z</time>
      </trkpt>
      <trkpt lat="43.09586" lon="2.35946">
        <ele>285.1682</ele>
        <time>2012-05-06T10:53:49Z</time>
      </trkpt>
      <trkpt lat="43.0959" lon="2.35938">
        <ele>285.1682</ele>
        <time>2012-05-06T10:53:50Z</time>
      </trkpt>
      <trkpt lat="43.09598" lon="2.35919">
        <ele>283.2456</ele>
        <time>2012-05-06T10:53:52Z</time>
      </trkpt>
      <trkpt lat="43.0961" lon="2.35895">
        <ele>280.3617</ele>
        <time>2012-05-06T10:53:55Z</time>
      </trkpt>
      <trkpt lat="43.09613" lon="2.35888">
        <ele>278.439</ele>
        <time>2012-05-06T10:53:57Z</time>
      </trkpt>
      <trkpt lat="43.09614" lon="2.35884">
        <ele>276.5164</ele>
        <time>2012-05-06T10:54:00Z</time>
      </trkpt>
      <trkpt lat="43.09615" lon="2.35871">
        <ele>275.0745</ele>
        <time>2012-05-06T10:54:17Z</time>
      </trkpt>
      <trkpt lat="43.09614" lon="2.35866">
        <ele>274.5938</ele>
        <time>2012-05-06T10:54:38Z</time>
      </trkpt>
      <trkpt lat="43.09615" lon="2.35851">
        <ele>274.5938</ele>
        <time>2012-05-06T10:54:45Z</time>
      </trkpt>
      <trkpt lat="43.09615" lon="2.35833">
        <ele>272.1904</ele>
        <time>2012-05-06T10:54:48Z</time>
      </trkpt>
      <trkpt lat="43.09616" lon="2.35828">
        <ele>270.7484</ele>
        <time>2012-05-06T10:54:49Z</time>
      </trkpt>
      <trkpt lat="43.09617" lon="2.35818">
        <ele>268.8258</ele>
        <time>2012-05-06T10:54:54Z</time>
      </trkpt>
      <trkpt lat="43.09618" lon="2.35815">
        <ele>269.3065</ele>
        <time>2012-05-06T10:54:58Z</time>
      </trkpt>
      <trkpt lat="43.09619" lon="2.35808">
        <ele>268.8258</ele>
        <time>2012-05-06T10:55:01Z</time>
      </trkpt>
      <trkpt lat="43.09614" lon="2.35802">
        <ele>267.3839</ele>
        <time>2012-05-06T10:55:08Z</time>
      </trkpt>
      <trkpt lat="43.09606" lon="2.35809">
        <ele>267.8645</ele>
        <time>2012-05-06T10:55:12Z</time>
      </trkpt>
      <trkpt lat="43.09584" lon="2.35812">
        <ele>268.3451</ele>
        <time>2012-05-06T10:55:26Z</time>
      </trkpt>
      <trkpt lat="43.09562" lon="2.35769">
        <ele>269.3065</ele>
        <time>2012-05-06T10:55:43Z</time>
      </trkpt>
      <trkpt lat="43.09554" lon="2.35761">
        <ele>272.1904</ele>
        <time>2012-05-06T10:55:48Z</time>
      </trkpt>
      <trkpt lat="43.09547" lon="2.35757">
        <ele>273.6324</ele>
        <time>2012-05-06T10:55:52Z</time>
      </trkpt>
      <trkpt lat="43.09526" lon="2.35741">
        <ele>276.9971</ele>
        <time>2012-05-06T10:56:07Z</time>
      </trkpt>
      <trkpt lat="43.09523" lon="2.35741">
        <ele>277.9583</ele>
        <time>2012-05-06T10:56:09Z</time>
      </trkpt>
      <trkpt lat="43.09519" lon="2.35741">
        <ele>277.9583</ele>
        <time>2012-05-06T10:56:13Z</time>
      </trkpt>
      <trkpt lat="43.09503" lon="2.35735">
        <ele>280.3617</ele>
        <time>2012-05-06T10:56:24Z</time>
      </trkpt>
      <trkpt lat="43.09486" lon="2.35751">
        <ele>278.439</ele>
        <time>2012-05-06T10:56:29Z</time>
      </trkpt>
      <trkpt lat="43.09481" lon="2.35754">
        <ele>275.5551</ele>
        <time>2012-05-06T10:56:30Z</time>
      </trkpt>
      <trkpt lat="43.09472" lon="2.35758">
        <ele>273.6324</ele>
        <time>2012-05-06T10:56:32Z</time>
      </trkpt>
      <trkpt lat="43.09468" lon="2.35762">
        <ele>271.2291</ele>
        <time>2012-05-06T10:56:33Z</time>
      </trkpt>
      <trkpt lat="43.0946" lon="2.35767">
        <ele>269.7871</ele>
        <time>2012-05-06T10:56:35Z</time>
      </trkpt>
      <trkpt lat="43.09456" lon="2.35773">
        <ele>267.8645</ele>
        <time>2012-05-06T10:56:37Z</time>
      </trkpt>
      <trkpt lat="43.09451" lon="2.35779">
        <ele>266.9032</ele>
        <time>2012-05-06T10:56:39Z</time>
      </trkpt>
      <trkpt lat="43.09448" lon="2.35783">
        <ele>265.9419</ele>
        <time>2012-05-06T10:56:40Z</time>
      </trkpt>
      <trkpt lat="43.09433" lon="2.35789">
        <ele>264.4999</ele>
        <time>2012-05-06T10:56:44Z</time>
      </trkpt>
      <trkpt lat="43.09427" lon="2.35794">
        <ele>263.5386</ele>
        <time>2012-05-06T10:56:46Z</time>
      </trkpt>
      <trkpt lat="43.09418" lon="2.35792">
        <ele>263.0579</ele>
        <time>2012-05-06T10:56:49Z</time>
      </trkpt>
      <trkpt lat="43.09413" lon="2.35788">
        <ele>262.5771</ele>
        <time>2012-05-06T10:56:51Z</time>
      </trkpt>
      <trkpt lat="43.09396" lon="2.35782">
        <ele>261.1353</ele>
        <time>2012-05-06T10:56:57Z</time>
      </trkpt>
      <trkpt lat="43.09362" lon="2.35785">
        <ele>259.2126</ele>
        <time>2012-05-06T10:57:06Z</time>
      </trkpt>
      <trkpt lat="43.09327" lon="2.35807">
        <ele>257.29</ele>
        <time>2012-05-06T10:57:15Z</time>
      </trkpt>
      <trkpt lat="43.09306" lon="2.35824">
        <ele>254.406</ele>
        <time>2012-05-06T10:57:21Z</time>
      </trkpt>
      <trkpt lat="43.09299" lon="2.35829">
        <ele>252.964</ele>
        <time>2012-05-06T10:57:23Z</time>
      </trkpt>
      <trkpt lat="43.09283" lon="2.35838">
        <ele>251.0414</ele>
        <time>2012-05-06T10:57:27Z</time>
      </trkpt>
      <trkpt lat="43.09266" lon="2.35852">
        <ele>249.5995</ele>
        <time>2012-05-06T10:57:31Z</time>
      </trkpt>
      <trkpt lat="43.09227" lon="2.35851">
        <ele>251.5221</ele>
        <time>2012-05-06T10:57:44Z</time>
      </trkpt>
      <trkpt lat="43.09221" lon="2.35854">
        <ele>253.9254</ele>
        <time>2012-05-06T10:57:47Z</time>
      </trkpt>
      <trkpt lat="43.09206" lon="2.35853">
        <ele>253.4447</ele>
        <time>2012-05-06T10:57:52Z</time>
      </trkpt>
      <trkpt lat="43.09198" lon="2.35832">
        <ele>250.0802</ele>
        <time>2012-05-06T10:57:56Z</time>
      </trkpt>
      <trkpt lat="43.09195" lon="2.35822">
        <ele>250.0802</ele>
        <time>2012-05-06T10:57:57Z</time>
      </trkpt>
      <trkpt lat="43.09192" lon="2.35813">
        <ele>248.1576</ele>
        <time>2012-05-06T10:57:58Z</time>
      </trkpt>
      <trkpt lat="43.09169" lon="2.35763">
        <ele>249.5995</ele>
        <time>2012-05-06T10:58:09Z</time>
      </trkpt>
      <trkpt lat="43.09161" lon="2.35738">
        <ele>249.1188</ele>
        <time>2012-05-06T10:58:13Z</time>
      </trkpt>
      <trkpt lat="43.09159" lon="2.35705">
        <ele>249.1188</ele>
        <time>2012-05-06T10:58:19Z</time>
      </trkpt>
      <trkpt lat="43.09156" lon="2.35665">
        <ele>250.0802</ele>
        <time>2012-05-06T10:58:25Z</time>
      </trkpt>
      <trkpt lat="43.09146" lon="2.3564">
        <ele>250.5608</ele>
        <time>2012-05-06T10:58:30Z</time>
      </trkpt>
      <trkpt lat="43.09128" lon="2.35594">
        <ele>248.1576</ele>
        <time>2012-05-06T10:58:37Z</time>
      </trkpt>
      <trkpt lat="43.09125" lon="2.35586">
        <ele>247.6768</ele>
        <time>2012-05-06T10:58:38Z</time>
      </trkpt>
      <trkpt lat="43.09103" lon="2.35563">
        <ele>251.0414</ele>
        <time>2012-05-06T10:58:52Z</time>
      </trkpt>
      <trkpt lat="43.09089" lon="2.35551">
        <ele>253.9254</ele>
        <time>2012-05-06T10:59:01Z</time>
      </trkpt>
      <trkpt lat="43.09083" lon="2.35547">
        <ele>255.3673</ele>
        <time>2012-05-06T10:59:05Z</time>
      </trkpt>
      <trkpt lat="43.09073" lon="2.35538">
        <ele>257.7708</ele>
        <time>2012-05-06T10:59:12Z</time>
      </trkpt>
      <trkpt lat="43.0907" lon="2.35495">
        <ele>260.6545</ele>
        <time>2012-05-06T10:59:28Z</time>
      </trkpt>
      <trkpt lat="43.09071" lon="2.35488">
        <ele>259.6934</ele>
        <time>2012-05-06T10:59:29Z</time>
      </trkpt>
      <trkpt lat="43.09079" lon="2.35454">
        <ele>257.29</ele>
        <time>2012-05-06T10:59:33Z</time>
      </trkpt>
      <trkpt lat="43.09078" lon="2.35436">
        <ele>255.3673</ele>
        <time>2012-05-06T10:59:35Z</time>
      </trkpt>
      <trkpt lat="43.09074" lon="2.35419">
        <ele>254.8866</ele>
        <time>2012-05-06T10:59:37Z</time>
      </trkpt>
      <trkpt lat="43.09072" lon="2.35398">
        <ele>252.964</ele>
        <time>2012-05-06T10:59:39Z</time>
      </trkpt>
      <trkpt lat="43.09071" lon="2.35373">
        <ele>249.5995</ele>
        <time>2012-05-06T10:59:41Z</time>
      </trkpt>
      <trkpt lat="43.0907" lon="2.35359">
        <ele>249.5995</ele>
        <time>2012-05-06T10:59:42Z</time>
      </trkpt>
      <trkpt lat="43.09064" lon="2.35305">
        <ele>247.196</ele>
        <time>2012-05-06T10:59:46Z</time>
      </trkpt>
      <trkpt lat="43.09062" lon="2.35292">
        <ele>246.7155</ele>
        <time>2012-05-06T10:59:47Z</time>
      </trkpt>
      <trkpt lat="43.09056" lon="2.35269">
        <ele>245.7542</ele>
        <time>2012-05-06T10:59:49Z</time>
      </trkpt>
      <trkpt lat="43.09044" lon="2.35255">
        <ele>244.3123</ele>
        <time>2012-05-06T10:59:51Z</time>
      </trkpt>
      <trkpt lat="43.09031" lon="2.35248">
        <ele>244.3123</ele>
        <time>2012-05-06T10:59:53Z</time>
      </trkpt>
      <trkpt lat="43.09005" lon="2.35223">
        <ele>246.7155</ele>
        <time>2012-05-06T10:59:59Z</time>
      </trkpt>
      <trkpt lat="43.08995" lon="2.35219">
        <ele>246.7155</ele>
        <time>2012-05-06T11:00:01Z</time>
      </trkpt>
      <trkpt lat="43.08981" lon="2.35208">
        <ele>247.196</ele>
        <time>2012-05-06T11:00:05Z</time>
      </trkpt>
      <trkpt lat="43.08993" lon="2.352">
        <ele>249.1188</ele>
        <time>2012-05-06T11:00:11Z</time>
      </trkpt>
      <trkpt lat="43.08997" lon="2.35184">
        <ele>250.5608</ele>
        <time>2012-05-06T11:00:17Z</time>
      </trkpt>
      <trkpt lat="43.08977" lon="2.35131">
        <ele>250.0802</ele>
        <time>2012-05-06T11:00:29Z</time>
      </trkpt>
      <trkpt lat="43.08969" lon="2.35102">
        <ele>248.1576</ele>
        <time>2012-05-06T11:00:33Z</time>
      </trkpt>
      <trkpt lat="43.08964" lon="2.35078">
        <ele>246.7155</ele>
        <time>2012-05-06T11:00:36Z</time>
      </trkpt>
      <trkpt lat="43.08961" lon="2.3504">
        <ele>244.7928</ele>
        <time>2012-05-06T11:00:40Z</time>
      </trkpt>
      <trkpt lat="43.08939" lon="2.34983">
        <ele>243.3508</ele>
        <time>2012-05-06T11:00:48Z</time>
      </trkpt>
      <trkpt lat="43.08937" lon="2.34969">
        <ele>243.3508</ele>
        <time>2012-05-06T11:00:50Z</time>
      </trkpt>
      <trkpt lat="43.08924" lon="2.34937">
        <ele>242.8702</ele>
        <time>2012-05-06T11:00:58Z</time>
      </trkpt>
      <trkpt lat="43.08917" lon="2.34929">
        <ele>244.3123</ele>
        <time>2012-05-06T11:01:03Z</time>
      </trkpt>
      <trkpt lat="43.08906" lon="2.34912">
        <ele>247.6768</ele>
        <time>2012-05-06T11:01:13Z</time>
      </trkpt>
      <trkpt lat="43.08892" lon="2.34899">
        <ele>250.0802</ele>
        <time>2012-05-06T11:01:23Z</time>
      </trkpt>
      <trkpt lat="43.08879" lon="2.34888">
        <ele>253.4447</ele>
        <time>2012-05-06T11:01:34Z</time>
      </trkpt>
      <trkpt lat="43.08869" lon="2.34879">
        <ele>256.8093</ele>
        <time>2012-05-06T11:01:43Z</time>
      </trkpt>
      <trkpt lat="43.08865" lon="2.34874">
        <ele>257.7708</ele>
        <time>2012-05-06T11:01:47Z</time>
      </trkpt>
      <trkpt lat="43.08852" lon="2.34872">
        <ele>261.616</ele>
        <time>2012-05-06T11:02:00Z</time>
      </trkpt>
      <trkpt lat="43.08848" lon="2.34868">
        <ele>262.5771</ele>
        <time>2012-05-06T11:02:05Z</time>
      </trkpt>
      <trkpt lat="43.08844" lon="2.34854">
        <ele>265.4613</ele>
        <time>2012-05-06T11:02:15Z</time>
      </trkpt>
      <trkpt lat="43.08843" lon="2.34831">
        <ele>269.3065</ele>
        <time>2012-05-06T11:02:30Z</time>
      </trkpt>
      <trkpt lat="43.08838" lon="2.34813">
        <ele>272.6711</ele>
        <time>2012-05-06T11:02:43Z</time>
      </trkpt>
      <trkpt lat="43.08828" lon="2.34799">
        <ele>275.5551</ele>
        <time>2012-05-06T11:02:55Z</time>
      </trkpt>
      <trkpt lat="43.08819" lon="2.34781">
        <ele>276.5164</ele>
        <time>2012-05-06T11:03:18Z</time>
      </trkpt>
      <trkpt lat="43.0882" lon="2.34784">
        <ele>276.0356</ele>
        <time>2012-05-06T11:04:40Z</time>
      </trkpt>
      <trkpt lat="43.08818" lon="2.34784">
        <ele>276.0356</ele>
        <time>2012-05-06T11:05:22Z</time>
      </trkpt>
      <trkpt lat="43.08818" lon="2.34783">
        <ele>276.0356</ele>
        <time>2012-05-06T11:05:43Z</time>
      </trkpt>
      <trkpt lat="43.08814" lon="2.34774">
        <ele>276.5164</ele>
        <time>2012-05-06T11:05:48Z</time>
      </trkpt>
      <trkpt lat="43.08801" lon="2.34746">
        <ele>275.0745</ele>
        <time>2012-05-06T11:05:56Z</time>
      </trkpt>
      <trkpt lat="43.08772" lon="2.3469">
        <ele>272.6711</ele>
        <time>2012-05-06T11:06:04Z</time>
      </trkpt>
      <trkpt lat="43.08762" lon="2.34671">
        <ele>270.7484</ele>
        <time>2012-05-06T11:06:06Z</time>
      </trkpt>
      <trkpt lat="43.08752" lon="2.3465">
        <ele>269.7871</ele>
        <time>2012-05-06T11:06:08Z</time>
      </trkpt>
      <trkpt lat="43.08743" lon="2.3463">
        <ele>264.9806</ele>
        <time>2012-05-06T11:06:10Z</time>
      </trkpt>
      <trkpt lat="43.08739" lon="2.34622">
        <ele>264.9806</ele>
        <time>2012-05-06T11:06:11Z</time>
      </trkpt>
      <trkpt lat="43.0873" lon="2.34608">
        <ele>262.0966</ele>
        <time>2012-05-06T11:06:13Z</time>
      </trkpt>
      <trkpt lat="43.08716" lon="2.34597">
        <ele>260.6545</ele>
        <time>2012-05-06T11:06:15Z</time>
      </trkpt>
      <trkpt lat="43.087" lon="2.3459">
        <ele>257.29</ele>
        <time>2012-05-06T11:06:17Z</time>
      </trkpt>
      <trkpt lat="43.08686" lon="2.34587">
        <ele>254.406</ele>
        <time>2012-05-06T11:06:19Z</time>
      </trkpt>
      <trkpt lat="43.08668" lon="2.34572">
        <ele>252.964</ele>
        <time>2012-05-06T11:06:22Z</time>
      </trkpt>
      <trkpt lat="43.08661" lon="2.34565">
        <ele>251.5221</ele>
        <time>2012-05-06T11:06:23Z</time>
      </trkpt>
      <trkpt lat="43.08647" lon="2.34554">
        <ele>250.5608</ele>
        <time>2012-05-06T11:06:25Z</time>
      </trkpt>
      <trkpt lat="43.08633" lon="2.34548">
        <ele>248.1576</ele>
        <time>2012-05-06T11:06:27Z</time>
      </trkpt>
      <trkpt lat="43.0862" lon="2.34547">
        <ele>246.2349</ele>
        <time>2012-05-06T11:06:29Z</time>
      </trkpt>
      <trkpt lat="43.08602" lon="2.34553">
        <ele>243.3508</ele>
        <time>2012-05-06T11:06:32Z</time>
      </trkpt>
      <trkpt lat="43.08557" lon="2.34537">
        <ele>242.3896</ele>
        <time>2012-05-06T11:06:43Z</time>
      </trkpt>
      <trkpt lat="43.08526" lon="2.34478">
        <ele>241.4282</ele>
        <time>2012-05-06T11:06:59Z</time>
      </trkpt>
      <trkpt lat="43.0852" lon="2.34381">
        <ele>245.2734</ele>
        <time>2012-05-06T11:07:21Z</time>
      </trkpt>
      <trkpt lat="43.08488" lon="2.34298">
        <ele>243.3508</ele>
        <time>2012-05-06T11:07:37Z</time>
      </trkpt>
      <trkpt lat="43.08485" lon="2.34291">
        <ele>242.3896</ele>
        <time>2012-05-06T11:07:38Z</time>
      </trkpt>
      <trkpt lat="43.0847" lon="2.34274">
        <ele>240.467</ele>
        <time>2012-05-06T11:07:43Z</time>
      </trkpt>
      <trkpt lat="43.08468" lon="2.34266">
        <ele>238.0636</ele>
        <time>2012-05-06T11:07:46Z</time>
      </trkpt>
      <trkpt lat="43.08472" lon="2.34263">
        <ele>238.0636</ele>
        <time>2012-05-06T11:07:48Z</time>
      </trkpt>
      <trkpt lat="43.08504" lon="2.34262">
        <ele>238.5443</ele>
        <time>2012-05-06T11:07:56Z</time>
      </trkpt>
      <trkpt lat="43.08515" lon="2.34264">
        <ele>238.5443</ele>
        <time>2012-05-06T11:07:58Z</time>
      </trkpt>
      <trkpt lat="43.08547" lon="2.34248">
        <ele>237.5829</ele>
        <time>2012-05-06T11:08:04Z</time>
      </trkpt>
      <trkpt lat="43.08559" lon="2.3423">
        <ele>236.141</ele>
        <time>2012-05-06T11:08:07Z</time>
      </trkpt>
      <trkpt lat="43.08574" lon="2.34182">
        <ele>234.2184</ele>
        <time>2012-05-06T11:08:13Z</time>
      </trkpt>
      <trkpt lat="43.08586" lon="2.34153">
        <ele>234.2184</ele>
        <time>2012-05-06T11:08:16Z</time>
      </trkpt>
      <trkpt lat="43.08615" lon="2.34124">
        <ele>231.3344</ele>
        <time>2012-05-06T11:08:21Z</time>
      </trkpt>
      <trkpt lat="43.08636" lon="2.34094">
        <ele>230.373</ele>
        <time>2012-05-06T11:08:25Z</time>
      </trkpt>
      <trkpt lat="43.08674" lon="2.34008">
        <ele>227.4891</ele>
        <time>2012-05-06T11:08:34Z</time>
      </trkpt>
      <trkpt lat="43.08684" lon="2.33992">
        <ele>226.5278</ele>
        <time>2012-05-06T11:08:36Z</time>
      </trkpt>
      <trkpt lat="43.08698" lon="2.3399">
        <ele>225.0859</ele>
        <time>2012-05-06T11:08:39Z</time>
      </trkpt>
      <trkpt lat="43.08699" lon="2.34002">
        <ele>223.6438</ele>
        <time>2012-05-06T11:08:41Z</time>
      </trkpt>
      <trkpt lat="43.08697" lon="2.3401">
        <ele>222.6825</ele>
        <time>2012-05-06T11:08:42Z</time>
      </trkpt>
      <trkpt lat="43.08693" lon="2.3403">
        <ele>222.2018</ele>
        <time>2012-05-06T11:08:44Z</time>
      </trkpt>
      <trkpt lat="43.08692" lon="2.34054">
        <ele>220.7599</ele>
        <time>2012-05-06T11:08:46Z</time>
      </trkpt>
      <trkpt lat="43.08692" lon="2.34081">
        <ele>219.318</ele>
        <time>2012-05-06T11:08:48Z</time>
      </trkpt>
      <trkpt lat="43.08691" lon="2.34109">
        <ele>217.3954</ele>
        <time>2012-05-06T11:08:50Z</time>
      </trkpt>
      <trkpt lat="43.08691" lon="2.34122">
        <ele>216.434</ele>
        <time>2012-05-06T11:08:51Z</time>
      </trkpt>
      <trkpt lat="43.08693" lon="2.34143">
        <ele>214.5112</ele>
        <time>2012-05-06T11:08:53Z</time>
      </trkpt>
      <trkpt lat="43.08702" lon="2.34151">
        <ele>213.0693</ele>
        <time>2012-05-06T11:08:55Z</time>
      </trkpt>
      <trkpt lat="43.08708" lon="2.3415">
        <ele>212.108</ele>
        <time>2012-05-06T11:08:56Z</time>
      </trkpt>
      <trkpt lat="43.08736" lon="2.34141">
        <ele>211.1467</ele>
        <time>2012-05-06T11:09:00Z</time>
      </trkpt>
      <trkpt lat="43.08777" lon="2.34127">
        <ele>208.7434</ele>
        <time>2012-05-06T11:09:05Z</time>
      </trkpt>
      <trkpt lat="43.08794" lon="2.3412">
        <ele>206.8207</ele>
        <time>2012-05-06T11:09:07Z</time>
      </trkpt>
      <trkpt lat="43.08815" lon="2.34088">
        <ele>205.8595</ele>
        <time>2012-05-06T11:09:11Z</time>
      </trkpt>
      <trkpt lat="43.08827" lon="2.34057">
        <ele>203.4562</ele>
        <time>2012-05-06T11:09:14Z</time>
      </trkpt>
      <trkpt lat="43.08831" lon="2.34046">
        <ele>202.0143</ele>
        <time>2012-05-06T11:09:15Z</time>
      </trkpt>
      <trkpt lat="43.08898" lon="2.33925">
        <ele>199.1301</ele>
        <time>2012-05-06T11:09:28Z</time>
      </trkpt>
      <trkpt lat="43.08921" lon="2.33846">
        <ele>195.2849</ele>
        <time>2012-05-06T11:09:36Z</time>
      </trkpt>
      <trkpt lat="43.08923" lon="2.33836">
        <ele>195.2849</ele>
        <time>2012-05-06T11:09:37Z</time>
      </trkpt>
      <trkpt lat="43.08948" lon="2.33735">
        <ele>191.9203</ele>
        <time>2012-05-06T11:09:47Z</time>
      </trkpt>
      <trkpt lat="43.08952" lon="2.33692">
        <ele>189.9977</ele>
        <time>2012-05-06T11:09:51Z</time>
      </trkpt>
      <trkpt lat="43.08953" lon="2.33681">
        <ele>189.517</ele>
        <time>2012-05-06T11:09:52Z</time>
      </trkpt>
      <trkpt lat="43.08948" lon="2.3364">
        <ele>187.1138</ele>
        <time>2012-05-06T11:09:56Z</time>
      </trkpt>
      <trkpt lat="43.08954" lon="2.33604">
        <ele>185.1912</ele>
        <time>2012-05-06T11:10:00Z</time>
      </trkpt>
      <trkpt lat="43.0896" lon="2.33598">
        <ele>184.7106</ele>
        <time>2012-05-06T11:10:01Z</time>
      </trkpt>
      <trkpt lat="43.09023" lon="2.33508">
        <ele>180.8652</ele>
        <time>2012-05-06T11:10:13Z</time>
      </trkpt>
      <trkpt lat="43.09094" lon="2.33377">
        <ele>177.9812</ele>
        <time>2012-05-06T11:10:29Z</time>
      </trkpt>
      <trkpt lat="43.09119" lon="2.3333">
        <ele>177.5006</ele>
        <time>2012-05-06T11:10:35Z</time>
      </trkpt>
      <trkpt lat="43.09119" lon="2.33295">
        <ele>177.02</ele>
        <time>2012-05-06T11:10:40Z</time>
      </trkpt>
      <trkpt lat="43.09019" lon="2.33194">
        <ele>177.5006</ele>
        <time>2012-05-06T11:11:03Z</time>
      </trkpt>
      <trkpt lat="43.08965" lon="2.33095">
        <ele>177.9812</ele>
        <time>2012-05-06T11:11:19Z</time>
      </trkpt>
      <trkpt lat="43.08962" lon="2.33088">
        <ele>177.5006</ele>
        <time>2012-05-06T11:11:20Z</time>
      </trkpt>
      <trkpt lat="43.08895" lon="2.33002">
        <ele>176.0586</ele>
        <time>2012-05-06T11:11:37Z</time>
      </trkpt>
      <trkpt lat="43.08831" lon="2.32921">
        <ele>177.5006</ele>
        <time>2012-05-06T11:11:54Z</time>
      </trkpt>
      <trkpt lat="43.08798" lon="2.32836">
        <ele>178.4619</ele>
        <time>2012-05-06T11:12:10Z</time>
      </trkpt>
      <trkpt lat="43.08785" lon="2.32795">
        <ele>178.4619</ele>
        <time>2012-05-06T11:12:17Z</time>
      </trkpt>
      <trkpt lat="43.08764" lon="2.32737">
        <ele>177.5006</ele>
        <time>2012-05-06T11:12:26Z</time>
      </trkpt>
      <trkpt lat="43.08764" lon="2.3269">
        <ele>174.1359</ele>
        <time>2012-05-06T11:12:30Z</time>
      </trkpt>
      <trkpt lat="43.08778" lon="2.32672">
        <ele>169.8101</ele>
        <time>2012-05-06T11:12:32Z</time>
      </trkpt>
      <trkpt lat="43.08785" lon="2.3267">
        <ele>169.8101</ele>
        <time>2012-05-06T11:12:33Z</time>
      </trkpt>
      <trkpt lat="43.08813" lon="2.3268">
        <ele>168.8488</ele>
        <time>2012-05-06T11:12:38Z</time>
      </trkpt>
      <trkpt lat="43.08814" lon="2.32668">
        <ele>170.2906</ele>
        <time>2012-05-06T11:12:40Z</time>
      </trkpt>
      <trkpt lat="43.08813" lon="2.32661">
        <ele>171.2521</ele>
        <time>2012-05-06T11:12:41Z</time>
      </trkpt>
      <trkpt lat="43.08805" lon="2.3262">
        <ele>171.7327</ele>
        <time>2012-05-06T11:12:48Z</time>
      </trkpt>
      <trkpt lat="43.08796" lon="2.32602">
        <ele>173.1747</ele>
        <time>2012-05-06T11:12:52Z</time>
      </trkpt>
      <trkpt lat="43.08791" lon="2.32593">
        <ele>173.6553</ele>
        <time>2012-05-06T11:12:54Z</time>
      </trkpt>
      <trkpt lat="43.08789" lon="2.32554">
        <ele>173.6553</ele>
        <time>2012-05-06T11:13:00Z</time>
      </trkpt>
      <trkpt lat="43.088" lon="2.32517">
        <ele>173.1747</ele>
        <time>2012-05-06T11:13:06Z</time>
      </trkpt>
      <trkpt lat="43.08803" lon="2.32486">
        <ele>170.7714</ele>
        <time>2012-05-06T11:13:10Z</time>
      </trkpt>
      <trkpt lat="43.08807" lon="2.32373">
        <ele>169.3295</ele>
        <time>2012-05-06T11:13:23Z</time>
      </trkpt>
      <trkpt lat="43.08809" lon="2.32356">
        <ele>168.8488</ele>
        <time>2012-05-06T11:13:25Z</time>
      </trkpt>
      <trkpt lat="43.08809" lon="2.32309">
        <ele>168.368</ele>
        <time>2012-05-06T11:13:31Z</time>
      </trkpt>
      <trkpt lat="43.08809" lon="2.3227">
        <ele>168.8488</ele>
        <time>2012-05-06T11:13:36Z</time>
      </trkpt>
      <trkpt lat="43.08822" lon="2.32183">
        <ele>165.4841</ele>
        <time>2012-05-06T11:13:46Z</time>
      </trkpt>
      <trkpt lat="43.08834" lon="2.32037">
        <ele>165.9647</ele>
        <time>2012-05-06T11:14:04Z</time>
      </trkpt>
      <trkpt lat="43.08847" lon="2.3187">
        <ele>166.4453</ele>
        <time>2012-05-06T11:14:24Z</time>
      </trkpt>
      <trkpt lat="43.08863" lon="2.31784">
        <ele>165.4841</ele>
        <time>2012-05-06T11:14:35Z</time>
      </trkpt>
      <trkpt lat="43.08858" lon="2.31755">
        <ele>165.4841</ele>
        <time>2012-05-06T11:14:39Z</time>
      </trkpt>
      <trkpt lat="43.0881" lon="2.31606">
        <ele>165.9647</ele>
        <time>2012-05-06T11:15:03Z</time>
      </trkpt>
      <trkpt lat="43.08776" lon="2.31529">
        <ele>165.9647</ele>
        <time>2012-05-06T11:15:17Z</time>
      </trkpt>
      <trkpt lat="43.08774" lon="2.31493">
        <ele>164.0421</ele>
        <time>2012-05-06T11:15:22Z</time>
      </trkpt>
      <trkpt lat="43.08792" lon="2.3144">
        <ele>163.0808</ele>
        <time>2012-05-06T11:15:29Z</time>
      </trkpt>
      <trkpt lat="43.08811" lon="2.31381">
        <ele>163.0808</ele>
        <time>2012-05-06T11:15:37Z</time>
      </trkpt>
      <trkpt lat="43.08858" lon="2.31327">
        <ele>165.0034</ele>
        <time>2012-05-06T11:15:49Z</time>
      </trkpt>
      <trkpt lat="43.08969" lon="2.31278">
        <ele>165.0034</ele>
        <time>2012-05-06T11:16:14Z</time>
      </trkpt>
      <trkpt lat="43.08978" lon="2.31273">
        <ele>165.0034</ele>
        <time>2012-05-06T11:16:16Z</time>
      </trkpt>
      <trkpt lat="43.08997" lon="2.31266">
        <ele>165.4841</ele>
        <time>2012-05-06T11:16:20Z</time>
      </trkpt>
      <trkpt lat="43.09028" lon="2.31249">
        <ele>164.0421</ele>
        <time>2012-05-06T11:16:27Z</time>
      </trkpt>
      <trkpt lat="43.09124" lon="2.31185">
        <ele>164.0421</ele>
        <time>2012-05-06T11:16:47Z</time>
      </trkpt>
      <trkpt lat="43.09219" lon="2.31146">
        <ele>162.6001</ele>
        <time>2012-05-06T11:17:06Z</time>
      </trkpt>
      <trkpt lat="43.09281" lon="2.31086">
        <ele>162.1195</ele>
        <time>2012-05-06T11:17:20Z</time>
      </trkpt>
      <trkpt lat="43.09301" lon="2.31073">
        <ele>161.6389</ele>
        <time>2012-05-06T11:17:24Z</time>
      </trkpt>
      <trkpt lat="43.09323" lon="2.3107">
        <ele>162.1195</ele>
        <time>2012-05-06T11:17:28Z</time>
      </trkpt>
      <trkpt lat="43.09369" lon="2.3106">
        <ele>162.1195</ele>
        <time>2012-05-06T11:17:37Z</time>
      </trkpt>
      <trkpt lat="43.09378" lon="2.31055">
        <ele>161.6389</ele>
        <time>2012-05-06T11:17:39Z</time>
      </trkpt>
      <trkpt lat="43.09393" lon="2.31039">
        <ele>162.1195</ele>
        <time>2012-05-06T11:17:43Z</time>
      </trkpt>
      <trkpt lat="43.09416" lon="2.30975">
        <ele>160.6775</ele>
        <time>2012-05-06T11:17:55Z</time>
      </trkpt>
      <trkpt lat="43.09431" lon="2.30925">
        <ele>160.1969</ele>
        <time>2012-05-06T11:18:02Z</time>
      </trkpt>
      <trkpt lat="43.09434" lon="2.30894">
        <ele>160.1969</ele>
        <time>2012-05-06T11:18:06Z</time>
      </trkpt>
      <trkpt lat="43.09453" lon="2.30841">
        <ele>158.2742</ele>
        <time>2012-05-06T11:18:15Z</time>
      </trkpt>
      <trkpt lat="43.09435" lon="2.30819">
        <ele>159.2355</ele>
        <time>2012-05-06T11:18:21Z</time>
      </trkpt>
      <trkpt lat="43.0941" lon="2.3081">
        <ele>160.1969</ele>
        <time>2012-05-06T11:18:26Z</time>
      </trkpt>
      <trkpt lat="43.09388" lon="2.30802">
        <ele>160.6775</ele>
        <time>2012-05-06T11:18:30Z</time>
      </trkpt>
      <trkpt lat="43.09371" lon="2.30775">
        <ele>160.6775</ele>
        <time>2012-05-06T11:18:43Z</time>
      </trkpt>
      <trkpt lat="43.09376" lon="2.30772">
        <ele>160.1969</ele>
        <time>2012-05-06T11:19:13Z</time>
      </trkpt>
      <trkpt lat="43.09375" lon="2.30774">
        <ele>160.1969</ele>
        <time>2012-05-06T11:19:37Z</time>
      </trkpt>
      <trkpt lat="43.09375" lon="2.30772">
        <ele>160.6775</ele>
        <time>2012-05-06T11:20:41Z</time>
      </trkpt>
      <trkpt lat="43.09376" lon="2.30766">
        <ele>159.7162</ele>
        <time>2012-05-06T11:21:18Z</time>
      </trkpt>
      <trkpt lat="43.0938" lon="2.30764">
        <ele>160.1969</ele>
        <time>2012-05-06T11:21:49Z</time>
      </trkpt>
      <trkpt lat="43.09377" lon="2.30766">
        <ele>160.6775</ele>
        <time>2012-05-06T11:22:25Z</time>
      </trkpt>
      <trkpt lat="43.09376" lon="2.3077">
        <ele>161.6389</ele>
        <time>2012-05-06T11:23:00Z</time>
      </trkpt>
      <trkpt lat="43.09376" lon="2.30772">
        <ele>161.6389</ele>
        <time>2012-05-06T11:23:42Z</time>
      </trkpt>
      <trkpt lat="43.09375" lon="2.30772">
        <ele>161.6389</ele>
        <time>2012-05-06T11:24:07Z</time>
      </trkpt>
      <trkpt lat="43.09373" lon="2.30772">
        <ele>161.6389</ele>
        <time>2012-05-06T11:24:25Z</time>
      </trkpt>
      <trkpt lat="43.09373" lon="2.30771">
        <ele>162.1195</ele>
        <time>2012-05-06T11:24:55Z</time>
      </trkpt>
      <trkpt lat="43.09371" lon="2.30774">
        <ele>162.1195</ele>
        <time>2012-05-06T11:25:32Z</time>
      </trkpt>
      <trkpt lat="43.09371" lon="2.30775">
        <ele>162.6001</ele>
        <time>2012-05-06T11:26:03Z</time>
      </trkpt>
      <trkpt lat="43.09371" lon="2.30775">
        <ele>162.6001</ele>
        <time>2012-05-06T11:26:45Z</time>
      </trkpt>
      <trkpt lat="43.09366" lon="2.30777">
        <ele>163.0808</ele>
        <time>2012-05-06T11:26:51Z</time>
      </trkpt>
      <trkpt lat="43.09352" lon="2.30839">
        <ele>165.9647</ele>
        <time>2012-05-06T11:27:07Z</time>
      </trkpt>
      <trkpt lat="43.0935" lon="2.30845">
        <ele>165.0034</ele>
        <time>2012-05-06T11:27:09Z</time>
      </trkpt>
      <trkpt lat="43.09343" lon="2.30836">
        <ele>167.4067</ele>
        <time>2012-05-06T11:27:19Z</time>
      </trkpt>
      <trkpt lat="43.09344" lon="2.3078">
        <ele>169.3295</ele>
        <time>2012-05-06T11:27:38Z</time>
      </trkpt>
      <trkpt lat="43.0934" lon="2.30753">
        <ele>172.2133</ele>
        <time>2012-05-06T11:27:49Z</time>
      </trkpt>
      <trkpt lat="43.0934" lon="2.30751">
        <ele>172.2133</ele>
        <time>2012-05-06T11:27:50Z</time>
      </trkpt>
      <trkpt lat="43.09329" lon="2.30726">
        <ele>174.6166</ele>
        <time>2012-05-06T11:28:04Z</time>
      </trkpt>
      <trkpt lat="43.09319" lon="2.30711">
        <ele>177.9812</ele>
        <time>2012-05-06T11:28:19Z</time>
      </trkpt>
      <trkpt lat="43.09305" lon="2.30699">
        <ele>180.8652</ele>
        <time>2012-05-06T11:28:32Z</time>
      </trkpt>
      <trkpt lat="43.09291" lon="2.30677">
        <ele>184.7106</ele>
        <time>2012-05-06T11:28:49Z</time>
      </trkpt>
      <trkpt lat="43.09284" lon="2.30622">
        <ele>186.6332</ele>
        <time>2012-05-06T11:29:11Z</time>
      </trkpt>
      <trkpt lat="43.0925" lon="2.30521">
        <ele>187.1138</ele>
        <time>2012-05-06T11:29:35Z</time>
      </trkpt>
      <trkpt lat="43.09202" lon="2.30394">
        <ele>188.5558</ele>
        <time>2012-05-06T11:29:57Z</time>
      </trkpt>
      <trkpt lat="43.09196" lon="2.30378">
        <ele>188.0751</ele>
        <time>2012-05-06T11:30:00Z</time>
      </trkpt>
      <trkpt lat="43.09175" lon="2.30303">
        <ele>186.1525</ele>
        <time>2012-05-06T11:30:10Z</time>
      </trkpt>
      <trkpt lat="43.09168" lon="2.30202">
        <ele>188.5558</ele>
        <time>2012-05-06T11:30:27Z</time>
      </trkpt>
      <trkpt lat="43.09168" lon="2.30186">
        <ele>189.0364</ele>
        <time>2012-05-06T11:30:30Z</time>
      </trkpt>
      <trkpt lat="43.09166" lon="2.30165">
        <ele>187.5944</ele>
        <time>2012-05-06T11:30:33Z</time>
      </trkpt>
      <trkpt lat="43.0915" lon="2.30127">
        <ele>185.1912</ele>
        <time>2012-05-06T11:30:38Z</time>
      </trkpt>
      <trkpt lat="43.09155" lon="2.30083">
        <ele>184.7106</ele>
        <time>2012-05-06T11:30:43Z</time>
      </trkpt>
      <trkpt lat="43.09159" lon="2.30053">
        <ele>186.6332</ele>
        <time>2012-05-06T11:30:48Z</time>
      </trkpt>
      <trkpt lat="43.09156" lon="2.30045">
        <ele>188.0751</ele>
        <time>2012-05-06T11:30:50Z</time>
      </trkpt>
      <trkpt lat="43.09135" lon="2.29968">
        <ele>190.4784</ele>
        <time>2012-05-06T11:31:09Z</time>
      </trkpt>
      <trkpt lat="43.09124" lon="2.29919">
        <ele>193.3623</ele>
        <time>2012-05-06T11:31:22Z</time>
      </trkpt>
      <trkpt lat="43.09125" lon="2.29899">
        <ele>193.3623</ele>
        <time>2012-05-06T11:31:26Z</time>
      </trkpt>
      <trkpt lat="43.09125" lon="2.29881">
        <ele>192.8817</ele>
        <time>2012-05-06T11:31:29Z</time>
      </trkpt>
      <trkpt lat="43.09123" lon="2.29854">
        <ele>191.4396</ele>
        <time>2012-05-06T11:31:33Z</time>
      </trkpt>
      <trkpt lat="43.09111" lon="2.29832">
        <ele>190.4784</ele>
        <time>2012-05-06T11:31:37Z</time>
      </trkpt>
      <trkpt lat="43.09103" lon="2.29804">
        <ele>189.517</ele>
        <time>2012-05-06T11:31:41Z</time>
      </trkpt>
      <trkpt lat="43.09102" lon="2.29755">
        <ele>188.0751</ele>
        <time>2012-05-06T11:31:47Z</time>
      </trkpt>
      <trkpt lat="43.09098" lon="2.29715">
        <ele>189.0364</ele>
        <time>2012-05-06T11:31:53Z</time>
      </trkpt>
      <trkpt lat="43.09078" lon="2.29644">
        <ele>192.4011</ele>
        <time>2012-05-06T11:32:08Z</time>
      </trkpt>
      <trkpt lat="43.09061" lon="2.29602">
        <ele>196.2463</ele>
        <time>2012-05-06T11:32:20Z</time>
      </trkpt>
      <trkpt lat="43.09059" lon="2.29599">
        <ele>196.2463</ele>
        <time>2012-05-06T11:32:21Z</time>
      </trkpt>
      <trkpt lat="43.09045" lon="2.29557">
        <ele>195.2849</ele>
        <time>2012-05-06T11:32:31Z</time>
      </trkpt>
      <trkpt lat="43.09038" lon="2.29527">
        <ele>192.8817</ele>
        <time>2012-05-06T11:32:35Z</time>
      </trkpt>
      <trkpt lat="43.09028" lon="2.29494">
        <ele>191.9203</ele>
        <time>2012-05-06T11:32:39Z</time>
      </trkpt>
      <trkpt lat="43.09007" lon="2.29474">
        <ele>191.4396</ele>
        <time>2012-05-06T11:32:43Z</time>
      </trkpt>
      <trkpt lat="43.08975" lon="2.29449">
        <ele>190.4784</ele>
        <time>2012-05-06T11:32:48Z</time>
      </trkpt>
      <trkpt lat="43.08956" lon="2.29436">
        <ele>190.4784</ele>
        <time>2012-05-06T11:32:52Z</time>
      </trkpt>
      <trkpt lat="43.08926" lon="2.29401">
        <ele>193.843</ele>
        <time>2012-05-06T11:33:06Z</time>
      </trkpt>
      <trkpt lat="43.08917" lon="2.29389">
        <ele>195.7656</ele>
        <time>2012-05-06T11:33:11Z</time>
      </trkpt>
      <trkpt lat="43.08905" lon="2.29386">
        <ele>195.7656</ele>
        <time>2012-05-06T11:33:15Z</time>
      </trkpt>
      <trkpt lat="43.08889" lon="2.29384">
        <ele>194.3237</ele>
        <time>2012-05-06T11:33:18Z</time>
      </trkpt>
      <trkpt lat="43.08882" lon="2.2938">
        <ele>194.3237</ele>
        <time>2012-05-06T11:33:20Z</time>
      </trkpt>
      <trkpt lat="43.08878" lon="2.29386">
        <ele>193.3623</ele>
        <time>2012-05-06T11:33:25Z</time>
      </trkpt>
      <trkpt lat="43.08867" lon="2.29389">
        <ele>191.4396</ele>
        <time>2012-05-06T11:33:39Z</time>
      </trkpt>
      <trkpt lat="43.08863" lon="2.29398">
        <ele>194.3237</ele>
        <time>2012-05-06T11:33:54Z</time>
      </trkpt>
      <trkpt lat="43.08857" lon="2.29399">
        <ele>195.2849</ele>
        <time>2012-05-06T11:34:06Z</time>
      </trkpt>
      <trkpt lat="43.08853" lon="2.294">
        <ele>195.2849</ele>
        <time>2012-05-06T11:34:10Z</time>
      </trkpt>
      <trkpt lat="43.08851" lon="2.29404">
        <ele>196.2463</ele>
        <time>2012-05-06T11:34:13Z</time>
      </trkpt>
      <trkpt lat="43.08829" lon="2.29403">
        <ele>197.6882</ele>
        <time>2012-05-06T11:34:26Z</time>
      </trkpt>
      <trkpt lat="43.08825" lon="2.294">
        <ele>198.1689</ele>
        <time>2012-05-06T11:34:29Z</time>
      </trkpt>
      <trkpt lat="43.08803" lon="2.2938">
        <ele>198.6495</ele>
        <time>2012-05-06T11:34:42Z</time>
      </trkpt>
      <trkpt lat="43.08791" lon="2.29381">
        <ele>197.2075</ele>
        <time>2012-05-06T11:34:46Z</time>
      </trkpt>
      <trkpt lat="43.08788" lon="2.29382">
        <ele>197.2075</ele>
        <time>2012-05-06T11:34:48Z</time>
      </trkpt>
      <trkpt lat="43.0878" lon="2.29374">
        <ele>198.6495</ele>
        <time>2012-05-06T11:35:03Z</time>
      </trkpt>
      <trkpt lat="43.08773" lon="2.29367">
        <ele>199.6108</ele>
        <time>2012-05-06T11:35:11Z</time>
      </trkpt>
      <trkpt lat="43.08772" lon="2.29361">
        <ele>200.5723</ele>
        <time>2012-05-06T11:35:15Z</time>
      </trkpt>
      <trkpt lat="43.08788" lon="2.29362">
        <ele>200.5723</ele>
        <time>2012-05-06T11:35:24Z</time>
      </trkpt>
      <trkpt lat="43.08819" lon="2.2936">
        <ele>200.5723</ele>
        <time>2012-05-06T11:35:40Z</time>
      </trkpt>
      <trkpt lat="43.08837" lon="2.29352">
        <ele>201.5336</ele>
        <time>2012-05-06T11:35:48Z</time>
      </trkpt>
      <trkpt lat="43.08839" lon="2.29341">
        <ele>201.5336</ele>
        <time>2012-05-06T11:35:52Z</time>
      </trkpt>
      <trkpt lat="43.08842" lon="2.29304">
        <ele>202.9755</ele>
        <time>2012-05-06T11:36:05Z</time>
      </trkpt>
      <trkpt lat="43.08844" lon="2.2927">
        <ele>205.8595</ele>
        <time>2012-05-06T11:36:17Z</time>
      </trkpt>
      <trkpt lat="43.08845" lon="2.29259">
        <ele>206.3401</ele>
        <time>2012-05-06T11:36:21Z</time>
      </trkpt>
      <trkpt lat="43.08844" lon="2.29253">
        <ele>207.3014</ele>
        <time>2012-05-06T11:36:24Z</time>
      </trkpt>
      <trkpt lat="43.08844" lon="2.29214">
        <ele>207.7821</ele>
        <time>2012-05-06T11:36:35Z</time>
      </trkpt>
      <trkpt lat="43.08842" lon="2.292">
        <ele>207.7821</ele>
        <time>2012-05-06T11:36:40Z</time>
      </trkpt>
      <trkpt lat="43.08833" lon="2.29182">
        <ele>210.666</ele>
        <time>2012-05-06T11:36:48Z</time>
      </trkpt>
      <trkpt lat="43.08834" lon="2.29155">
        <ele>213.55</ele>
        <time>2012-05-06T11:37:02Z</time>
      </trkpt>
      <trkpt lat="43.08843" lon="2.29117">
        <ele>214.9919</ele>
        <time>2012-05-06T11:37:18Z</time>
      </trkpt>
      <trkpt lat="43.08825" lon="2.2907">
        <ele>217.3954</ele>
        <time>2012-05-06T11:37:37Z</time>
      </trkpt>
      <trkpt lat="43.0881" lon="2.29054">
        <ele>220.7599</ele>
        <time>2012-05-06T11:37:48Z</time>
      </trkpt>
      <trkpt lat="43.08804" lon="2.29048">
        <ele>220.7599</ele>
        <time>2012-05-06T11:38:07Z</time>
      </trkpt>
      <trkpt lat="43.08774" lon="2.29023">
        <ele>218.8373</ele>
        <time>2012-05-06T11:38:33Z</time>
      </trkpt>
      <trkpt lat="43.08756" lon="2.29005">
        <ele>217.3954</ele>
        <time>2012-05-06T11:38:37Z</time>
      </trkpt>
      <trkpt lat="43.08746" lon="2.28994">
        <ele>217.3954</ele>
        <time>2012-05-06T11:38:40Z</time>
      </trkpt>
      <trkpt lat="43.08734" lon="2.28976">
        <ele>217.876</ele>
        <time>2012-05-06T11:38:44Z</time>
      </trkpt>
      <trkpt lat="43.08727" lon="2.28969">
        <ele>217.876</ele>
        <time>2012-05-06T11:38:46Z</time>
      </trkpt>
      <trkpt lat="43.08711" lon="2.28964">
        <ele>218.3566</ele>
        <time>2012-05-06T11:38:50Z</time>
      </trkpt>
      <trkpt lat="43.08698" lon="2.28972">
        <ele>217.3954</ele>
        <time>2012-05-06T11:38:53Z</time>
      </trkpt>
      <trkpt lat="43.08682" lon="2.28973">
        <ele>216.9147</ele>
        <time>2012-05-06T11:38:57Z</time>
      </trkpt>
      <trkpt lat="43.08675" lon="2.28953">
        <ele>215.4727</ele>
        <time>2012-05-06T11:39:02Z</time>
      </trkpt>
      <trkpt lat="43.08645" lon="2.28919">
        <ele>218.3566</ele>
        <time>2012-05-06T11:39:13Z</time>
      </trkpt>
      <trkpt lat="43.08636" lon="2.28903">
        <ele>218.3566</ele>
        <time>2012-05-06T11:39:17Z</time>
      </trkpt>
      <trkpt lat="43.08632" lon="2.28893">
        <ele>218.8373</ele>
        <time>2012-05-06T11:39:19Z</time>
      </trkpt>
      <trkpt lat="43.08625" lon="2.28866">
        <ele>219.7986</ele>
        <time>2012-05-06T11:39:25Z</time>
      </trkpt>
      <trkpt lat="43.08614" lon="2.2882">
        <ele>220.2792</ele>
        <time>2012-05-06T11:39:37Z</time>
      </trkpt>
      <trkpt lat="43.08607" lon="2.28801">
        <ele>220.2792</ele>
        <time>2012-05-06T11:39:42Z</time>
      </trkpt>
      <trkpt lat="43.08588" lon="2.28761">
        <ele>222.6825</ele>
        <time>2012-05-06T11:39:56Z</time>
      </trkpt>
      <trkpt lat="43.08585" lon="2.28758">
        <ele>223.1632</ele>
        <time>2012-05-06T11:39:58Z</time>
      </trkpt>
      <trkpt lat="43.08581" lon="2.28751">
        <ele>224.6052</ele>
        <time>2012-05-06T11:40:02Z</time>
      </trkpt>
      <trkpt lat="43.08579" lon="2.28748">
        <ele>225.0859</ele>
        <time>2012-05-06T11:40:04Z</time>
      </trkpt>
      <trkpt lat="43.08559" lon="2.28725">
        <ele>227.4891</ele>
        <time>2012-05-06T11:40:19Z</time>
      </trkpt>
      <trkpt lat="43.08539" lon="2.28702">
        <ele>230.373</ele>
        <time>2012-05-06T11:40:33Z</time>
      </trkpt>
      <trkpt lat="43.08528" lon="2.28694">
        <ele>231.8149</ele>
        <time>2012-05-06T11:40:39Z</time>
      </trkpt>
      <trkpt lat="43.08518" lon="2.28697">
        <ele>231.3344</ele>
        <time>2012-05-06T11:40:43Z</time>
      </trkpt>
      <trkpt lat="43.08494" lon="2.28693">
        <ele>230.373</ele>
        <time>2012-05-06T11:40:48Z</time>
      </trkpt>
      <trkpt lat="43.08452" lon="2.28664">
        <ele>231.8149</ele>
        <time>2012-05-06T11:41:03Z</time>
      </trkpt>
      <trkpt lat="43.0843" lon="2.28635">
        <ele>234.6991</ele>
        <time>2012-05-06T11:41:15Z</time>
      </trkpt>
      <trkpt lat="43.08419" lon="2.28617">
        <ele>235.6603</ele>
        <time>2012-05-06T11:41:22Z</time>
      </trkpt>
      <trkpt lat="43.08414" lon="2.28607">
        <ele>235.6603</ele>
        <time>2012-05-06T11:41:25Z</time>
      </trkpt>
      <trkpt lat="43.08403" lon="2.28589">
        <ele>234.6991</ele>
        <time>2012-05-06T11:41:29Z</time>
      </trkpt>
      <trkpt lat="43.084" lon="2.2857">
        <ele>233.7377</ele>
        <time>2012-05-06T11:41:36Z</time>
      </trkpt>
      <trkpt lat="43.08405" lon="2.28564">
        <ele>235.1797</ele>
        <time>2012-05-06T11:41:41Z</time>
      </trkpt>
      <trkpt lat="43.08441" lon="2.28571">
        <ele>238.0636</ele>
        <time>2012-05-06T11:41:59Z</time>
      </trkpt>
      <trkpt lat="43.0848" lon="2.28588">
        <ele>241.4282</ele>
        <time>2012-05-06T11:42:17Z</time>
      </trkpt>
      <trkpt lat="43.08511" lon="2.28608">
        <ele>244.7928</ele>
        <time>2012-05-06T11:42:33Z</time>
      </trkpt>
      <trkpt lat="43.08539" lon="2.28614">
        <ele>244.3123</ele>
        <time>2012-05-06T11:42:43Z</time>
      </trkpt>
      <trkpt lat="43.08553" lon="2.2862">
        <ele>243.8315</ele>
        <time>2012-05-06T11:42:46Z</time>
      </trkpt>
      <trkpt lat="43.0857" lon="2.28634">
        <ele>243.3508</ele>
        <time>2012-05-06T11:42:50Z</time>
      </trkpt>
      <trkpt lat="43.0859" lon="2.28656">
        <ele>242.3896</ele>
        <time>2012-05-06T11:42:55Z</time>
      </trkpt>
      <trkpt lat="43.08603" lon="2.28648">
        <ele>241.9089</ele>
        <time>2012-05-06T11:43:01Z</time>
      </trkpt>
      <trkpt lat="43.08601" lon="2.28604">
        <ele>240.467</ele>
        <time>2012-05-06T11:43:07Z</time>
      </trkpt>
      <trkpt lat="43.08619" lon="2.28561">
        <ele>240.9476</ele>
        <time>2012-05-06T11:43:17Z</time>
      </trkpt>
      <trkpt lat="43.08616" lon="2.2851">
        <ele>243.3508</ele>
        <time>2012-05-06T11:43:31Z</time>
      </trkpt>
      <trkpt lat="43.08613" lon="2.28477">
        <ele>245.2734</ele>
        <time>2012-05-06T11:43:42Z</time>
      </trkpt>
      <trkpt lat="43.08619" lon="2.2847">
        <ele>246.7155</ele>
        <time>2012-05-06T11:43:47Z</time>
      </trkpt>
      <trkpt lat="43.08623" lon="2.28494">
        <ele>246.7155</ele>
        <time>2012-05-06T11:43:54Z</time>
      </trkpt>
      <trkpt lat="43.0863" lon="2.28536">
        <ele>248.1576</ele>
        <time>2012-05-06T11:44:05Z</time>
      </trkpt>
      <trkpt lat="43.08648" lon="2.28564">
        <ele>250.0802</ele>
        <time>2012-05-06T11:44:16Z</time>
      </trkpt>
      <trkpt lat="43.08647" lon="2.28553">
        <ele>252.0028</ele>
        <time>2012-05-06T11:44:24Z</time>
      </trkpt>
      <trkpt lat="43.08643" lon="2.28504">
        <ele>255.3673</ele>
        <time>2012-05-06T11:44:43Z</time>
      </trkpt>
      <trkpt lat="43.08642" lon="2.28482">
        <ele>256.8093</ele>
        <time>2012-05-06T11:44:51Z</time>
      </trkpt>
      <trkpt lat="43.08637" lon="2.28472">
        <ele>256.3287</ele>
        <time>2012-05-06T11:44:55Z</time>
      </trkpt>
      <trkpt lat="43.08635" lon="2.28428">
        <ele>259.6934</ele>
        <time>2012-05-06T11:45:10Z</time>
      </trkpt>
      <trkpt lat="43.08636" lon="2.28386">
        <ele>261.616</ele>
        <time>2012-05-06T11:45:27Z</time>
      </trkpt>
      <trkpt lat="43.08637" lon="2.28379">
        <ele>262.5771</ele>
        <time>2012-05-06T11:45:30Z</time>
      </trkpt>
      <trkpt lat="43.08643" lon="2.28375">
        <ele>264.4999</ele>
        <time>2012-05-06T11:45:34Z</time>
      </trkpt>
      <trkpt lat="43.08645" lon="2.28367">
        <ele>265.4613</ele>
        <time>2012-05-06T11:45:38Z</time>
      </trkpt>
      <trkpt lat="43.08644" lon="2.28364">
        <ele>265.9419</ele>
        <time>2012-05-06T11:45:40Z</time>
      </trkpt>
      <trkpt lat="43.08646" lon="2.28354">
        <ele>266.9032</ele>
        <time>2012-05-06T11:45:44Z</time>
      </trkpt>
      <trkpt lat="43.08643" lon="2.2833">
        <ele>268.8258</ele>
        <time>2012-05-06T11:45:55Z</time>
      </trkpt>
      <trkpt lat="43.08644" lon="2.28302">
        <ele>270.2677</ele>
        <time>2012-05-06T11:46:06Z</time>
      </trkpt>
      <trkpt lat="43.08656" lon="2.28284">
        <ele>272.1904</ele>
        <time>2012-05-06T11:46:17Z</time>
      </trkpt>
      <trkpt lat="43.08668" lon="2.28269">
        <ele>276.0356</ele>
        <time>2012-05-06T11:46:27Z</time>
      </trkpt>
      <trkpt lat="43.0867" lon="2.28268">
        <ele>276.0356</ele>
        <time>2012-05-06T11:46:28Z</time>
      </trkpt>
      <trkpt lat="43.08675" lon="2.28268">
        <ele>276.5164</ele>
        <time>2012-05-06T11:46:31Z</time>
      </trkpt>
      <trkpt lat="43.08677" lon="2.28266">
        <ele>277.4777</ele>
        <time>2012-05-06T11:46:33Z</time>
      </trkpt>
      <trkpt lat="43.08679" lon="2.28265">
        <ele>277.9583</ele>
        <time>2012-05-06T11:46:35Z</time>
      </trkpt>
      <trkpt lat="43.08681" lon="2.28252">
        <ele>277.4777</ele>
        <time>2012-05-06T11:46:40Z</time>
      </trkpt>
      <trkpt lat="43.08682" lon="2.2824">
        <ele>276.0356</ele>
        <time>2012-05-06T11:46:43Z</time>
      </trkpt>
      <trkpt lat="43.0869" lon="2.28223">
        <ele>274.5938</ele>
        <time>2012-05-06T11:46:48Z</time>
      </trkpt>
      <trkpt lat="43.08693" lon="2.28215">
        <ele>274.5938</ele>
        <time>2012-05-06T11:46:52Z</time>
      </trkpt>
      <trkpt lat="43.08707" lon="2.28202">
        <ele>276.5164</ele>
        <time>2012-05-06T11:47:03Z</time>
      </trkpt>
      <trkpt lat="43.08709" lon="2.28195">
        <ele>277.4777</ele>
        <time>2012-05-06T11:47:07Z</time>
      </trkpt>
      <trkpt lat="43.08714" lon="2.28177">
        <ele>277.4777</ele>
        <time>2012-05-06T11:47:15Z</time>
      </trkpt>
      <trkpt lat="43.08721" lon="2.2817">
        <ele>278.439</ele>
        <time>2012-05-06T11:47:19Z</time>
      </trkpt>
      <trkpt lat="43.08734" lon="2.28138">
        <ele>282.2843</ele>
        <time>2012-05-06T11:47:32Z</time>
      </trkpt>
      <trkpt lat="43.08736" lon="2.28131">
        <ele>282.2843</ele>
        <time>2012-05-06T11:47:36Z</time>
      </trkpt>
      <trkpt lat="43.08731" lon="2.28123">
        <ele>282.2843</ele>
        <time>2012-05-06T11:47:48Z</time>
      </trkpt>
      <trkpt lat="43.08728" lon="2.28122">
        <ele>284.6876</ele>
        <time>2012-05-06T11:48:05Z</time>
      </trkpt>
      <trkpt lat="43.08729" lon="2.28116">
        <ele>285.1682</ele>
        <time>2012-05-06T11:48:07Z</time>
      </trkpt>
      <trkpt lat="43.08728" lon="2.28112">
        <ele>286.1295</ele>
        <time>2012-05-06T11:48:10Z</time>
      </trkpt>
      <trkpt lat="43.0872" lon="2.28108">
        <ele>288.533</ele>
        <time>2012-05-06T11:48:16Z</time>
      </trkpt>
      <trkpt lat="43.08715" lon="2.28108">
        <ele>289.0135</ele>
        <time>2012-05-06T11:48:20Z</time>
      </trkpt>
      <trkpt lat="43.087" lon="2.28114">
        <ele>291.8975</ele>
        <time>2012-05-06T11:48:36Z</time>
      </trkpt>
      <trkpt lat="43.08697" lon="2.28116">
        <ele>292.3782</ele>
        <time>2012-05-06T11:48:39Z</time>
      </trkpt>
      <trkpt lat="43.08675" lon="2.28118">
        <ele>295.7427</ele>
        <time>2012-05-06T11:48:53Z</time>
      </trkpt>
      <trkpt lat="43.08663" lon="2.28106">
        <ele>298.1461</ele>
        <time>2012-05-06T11:49:03Z</time>
      </trkpt>
      <trkpt lat="43.08642" lon="2.2807">
        <ele>298.6267</ele>
        <time>2012-05-06T11:49:19Z</time>
      </trkpt>
      <trkpt lat="43.08608" lon="2.28035">
        <ele>296.2235</ele>
        <time>2012-05-06T11:49:31Z</time>
      </trkpt>
      <trkpt lat="43.08601" lon="2.2803">
        <ele>295.7427</ele>
        <time>2012-05-06T11:49:33Z</time>
      </trkpt>
      <trkpt lat="43.08597" lon="2.28018">
        <ele>295.262</ele>
        <time>2012-05-06T11:49:37Z</time>
      </trkpt>
      <trkpt lat="43.0859" lon="2.28012">
        <ele>295.7427</ele>
        <time>2012-05-06T11:49:42Z</time>
      </trkpt>
      <trkpt lat="43.08584" lon="2.28005">
        <ele>295.7427</ele>
        <time>2012-05-06T11:49:46Z</time>
      </trkpt>
      <trkpt lat="43.08582" lon="2.27999">
        <ele>296.2235</ele>
        <time>2012-05-06T11:49:49Z</time>
      </trkpt>
      <trkpt lat="43.08577" lon="2.27994">
        <ele>297.1847</ele>
        <time>2012-05-06T11:49:52Z</time>
      </trkpt>
      <trkpt lat="43.08572" lon="2.27993">
        <ele>297.6654</ele>
        <time>2012-05-06T11:49:55Z</time>
      </trkpt>
      <trkpt lat="43.08562" lon="2.27984">
        <ele>298.6267</ele>
        <time>2012-05-06T11:50:00Z</time>
      </trkpt>
      <trkpt lat="43.08558" lon="2.27966">
        <ele>298.1461</ele>
        <time>2012-05-06T11:50:06Z</time>
      </trkpt>
      <trkpt lat="43.08579" lon="2.27939">
        <ele>300.5493</ele>
        <time>2012-05-06T11:50:19Z</time>
      </trkpt>
      <trkpt lat="43.08605" lon="2.27923">
        <ele>303.9139</ele>
        <time>2012-05-06T11:50:32Z</time>
      </trkpt>
      <trkpt lat="43.08621" lon="2.27916">
        <ele>307.2786</ele>
        <time>2012-05-06T11:50:40Z</time>
      </trkpt>
      <trkpt lat="43.08623" lon="2.27916">
        <ele>307.2786</ele>
        <time>2012-05-06T11:50:41Z</time>
      </trkpt>
      <trkpt lat="43.0864" lon="2.2793">
        <ele>310.1625</ele>
        <time>2012-05-06T11:50:55Z</time>
      </trkpt>
      <trkpt lat="43.08645" lon="2.27936">
        <ele>311.6045</ele>
        <time>2012-05-06T11:50:59Z</time>
      </trkpt>
      <trkpt lat="43.08654" lon="2.27948">
        <ele>313.5272</ele>
        <time>2012-05-06T11:51:07Z</time>
      </trkpt>
      <trkpt lat="43.08679" lon="2.27957">
        <ele>317.3724</ele>
        <time>2012-05-06T11:51:24Z</time>
      </trkpt>
      <trkpt lat="43.0868" lon="2.27956">
        <ele>317.3724</ele>
        <time>2012-05-06T11:51:25Z</time>
      </trkpt>
      <trkpt lat="43.08693" lon="2.27955">
        <ele>320.7371</ele>
        <time>2012-05-06T11:51:35Z</time>
      </trkpt>
      <trkpt lat="43.08698" lon="2.27953">
        <ele>321.6984</ele>
        <time>2012-05-06T11:51:40Z</time>
      </trkpt>
      <trkpt lat="43.08724" lon="2.2793">
        <ele>325.063</ele>
        <time>2012-05-06T11:52:03Z</time>
      </trkpt>
      <trkpt lat="43.0874" lon="2.27923">
        <ele>327.9468</ele>
        <time>2012-05-06T11:52:14Z</time>
      </trkpt>
      <trkpt lat="43.08747" lon="2.27921">
        <ele>329.3889</ele>
        <time>2012-05-06T11:52:18Z</time>
      </trkpt>
      <trkpt lat="43.08795" lon="2.27899">
        <ele>330.3502</ele>
        <time>2012-05-06T11:52:36Z</time>
      </trkpt>
      <trkpt lat="43.08809" lon="2.27891">
        <ele>328.9083</ele>
        <time>2012-05-06T11:52:39Z</time>
      </trkpt>
      <trkpt lat="43.08839" lon="2.27877">
        <ele>327.9468</ele>
        <time>2012-05-06T11:52:44Z</time>
      </trkpt>
      <trkpt lat="43.08854" lon="2.27875">
        <ele>327.4662</ele>
        <time>2012-05-06T11:52:47Z</time>
      </trkpt>
      <trkpt lat="43.08898" lon="2.27885">
        <ele>330.3502</ele>
        <time>2012-05-06T11:53:02Z</time>
      </trkpt>
      <trkpt lat="43.08923" lon="2.27894">
        <ele>334.1954</ele>
        <time>2012-05-06T11:53:12Z</time>
      </trkpt>
      <trkpt lat="43.08933" lon="2.27897">
        <ele>335.6373</ele>
        <time>2012-05-06T11:53:16Z</time>
      </trkpt>
      <trkpt lat="43.08946" lon="2.27902">
        <ele>337.5601</ele>
        <time>2012-05-06T11:53:31Z</time>
      </trkpt>
      <trkpt lat="43.08944" lon="2.27902">
        <ele>337.5601</ele>
        <time>2012-05-06T11:54:13Z</time>
      </trkpt>
      <trkpt lat="43.08945" lon="2.27903">
        <ele>338.5215</ele>
        <time>2012-05-06T11:54:50Z</time>
      </trkpt>
      <trkpt lat="43.08944" lon="2.27902">
        <ele>338.0408</ele>
        <time>2012-05-06T11:55:27Z</time>
      </trkpt>
      <trkpt lat="43.08946" lon="2.27899">
        <ele>339.0021</ele>
        <time>2012-05-06T11:57:05Z</time>
      </trkpt>
      <trkpt lat="43.08944" lon="2.2789">
        <ele>339.4827</ele>
        <time>2012-05-06T11:57:10Z</time>
      </trkpt>
      <trkpt lat="43.08942" lon="2.2788">
        <ele>339.9634</ele>
        <time>2012-05-06T11:57:14Z</time>
      </trkpt>
      <trkpt lat="43.08941" lon="2.27875">
        <ele>339.9634</ele>
        <time>2012-05-06T11:57:16Z</time>
      </trkpt>
      <trkpt lat="43.08939" lon="2.27868">
        <ele>341.4053</ele>
        <time>2012-05-06T11:57:19Z</time>
      </trkpt>
      <trkpt lat="43.08938" lon="2.27864">
        <ele>341.886</ele>
        <time>2012-05-06T11:57:21Z</time>
      </trkpt>
      <trkpt lat="43.08936" lon="2.27861">
        <ele>342.3667</ele>
        <time>2012-05-06T11:57:23Z</time>
      </trkpt>
      <trkpt lat="43.08926" lon="2.27843">
        <ele>343.8086</ele>
        <time>2012-05-06T11:57:33Z</time>
      </trkpt>
      <trkpt lat="43.08915" lon="2.27825">
        <ele>345.2506</ele>
        <time>2012-05-06T11:57:43Z</time>
      </trkpt>
      <trkpt lat="43.08912" lon="2.27822">
        <ele>346.212</ele>
        <time>2012-05-06T11:57:46Z</time>
      </trkpt>
      <trkpt lat="43.08895" lon="2.27796">
        <ele>347.6539</ele>
        <time>2012-05-06T11:58:00Z</time>
      </trkpt>
      <trkpt lat="43.08894" lon="2.27795">
        <ele>347.6539</ele>
        <time>2012-05-06T11:58:01Z</time>
      </trkpt>
      <trkpt lat="43.08891" lon="2.27787">
        <ele>348.1346</ele>
        <time>2012-05-06T11:58:05Z</time>
      </trkpt>
      <trkpt lat="43.08883" lon="2.27777">
        <ele>349.0958</ele>
        <time>2012-05-06T11:58:12Z</time>
      </trkpt>
      <trkpt lat="43.08876" lon="2.27757">
        <ele>350.5378</ele>
        <time>2012-05-06T11:58:22Z</time>
      </trkpt>
      <trkpt lat="43.0887" lon="2.27736">
        <ele>350.5378</ele>
        <time>2012-05-06T11:58:29Z</time>
      </trkpt>
      <trkpt lat="43.08869" lon="2.2772">
        <ele>350.5378</ele>
        <time>2012-05-06T11:58:32Z</time>
      </trkpt>
      <trkpt lat="43.0886" lon="2.27697">
        <ele>349.5765</ele>
        <time>2012-05-06T11:58:35Z</time>
      </trkpt>
      <trkpt lat="43.08848" lon="2.27668">
        <ele>348.1346</ele>
        <time>2012-05-06T11:58:39Z</time>
      </trkpt>
      <trkpt lat="43.08835" lon="2.27624">
        <ele>344.77</ele>
        <time>2012-05-06T11:58:44Z</time>
      </trkpt>
      <trkpt lat="43.08831" lon="2.27614">
        <ele>344.77</ele>
        <time>2012-05-06T11:58:45Z</time>
      </trkpt>
      <trkpt lat="43.0883" lon="2.27597">
        <ele>343.3279</ele>
        <time>2012-05-06T11:58:47Z</time>
      </trkpt>
      <trkpt lat="43.08831" lon="2.2758">
        <ele>342.8473</ele>
        <time>2012-05-06T11:58:49Z</time>
      </trkpt>
      <trkpt lat="43.08827" lon="2.27561">
        <ele>341.4053</ele>
        <time>2012-05-06T11:58:51Z</time>
      </trkpt>
      <trkpt lat="43.08829" lon="2.27524">
        <ele>339.9634</ele>
        <time>2012-05-06T11:58:55Z</time>
      </trkpt>
      <trkpt lat="43.08855" lon="2.27466">
        <ele>338.5215</ele>
        <time>2012-05-06T11:59:03Z</time>
      </trkpt>
      <trkpt lat="43.08866" lon="2.27404">
        <ele>341.4053</ele>
        <time>2012-05-06T11:59:18Z</time>
      </trkpt>
      <trkpt lat="43.08867" lon="2.27367">
        <ele>341.4053</ele>
        <time>2012-05-06T11:59:29Z</time>
      </trkpt>
      <trkpt lat="43.08877" lon="2.27303">
        <ele>338.5215</ele>
        <time>2012-05-06T11:59:37Z</time>
      </trkpt>
      <trkpt lat="43.08879" lon="2.27285">
        <ele>338.5215</ele>
        <time>2012-05-06T11:59:39Z</time>
      </trkpt>
      <trkpt lat="43.08876" lon="2.27241">
        <ele>335.1567</ele>
        <time>2012-05-06T11:59:44Z</time>
      </trkpt>
      <trkpt lat="43.08874" lon="2.27231">
        <ele>335.1567</ele>
        <time>2012-05-06T11:59:45Z</time>
      </trkpt>
      <trkpt lat="43.0887" lon="2.27213">
        <ele>334.1954</ele>
        <time>2012-05-06T11:59:47Z</time>
      </trkpt>
      <trkpt lat="43.08867" lon="2.27196">
        <ele>332.2728</ele>
        <time>2012-05-06T11:59:49Z</time>
      </trkpt>
      <trkpt lat="43.08868" lon="2.27174">
        <ele>329.3889</ele>
        <time>2012-05-06T11:59:52Z</time>
      </trkpt>
      <trkpt lat="43.08872" lon="2.2716">
        <ele>328.9083</ele>
        <time>2012-05-06T11:59:54Z</time>
      </trkpt>
      <trkpt lat="43.08879" lon="2.27137">
        <ele>328.4276</ele>
        <time>2012-05-06T11:59:58Z</time>
      </trkpt>
      <trkpt lat="43.08881" lon="2.27119">
        <ele>327.9468</ele>
        <time>2012-05-06T12:00:01Z</time>
      </trkpt>
      <trkpt lat="43.08884" lon="2.27102">
        <ele>327.9468</ele>
        <time>2012-05-06T12:00:04Z</time>
      </trkpt>
      <trkpt lat="43.08879" lon="2.27051">
        <ele>329.3889</ele>
        <time>2012-05-06T12:00:17Z</time>
      </trkpt>
      <trkpt lat="43.08874" lon="2.27031">
        <ele>332.7535</ele>
        <time>2012-05-06T12:00:28Z</time>
      </trkpt>
      <trkpt lat="43.08874" lon="2.27028">
        <ele>332.7535</ele>
        <time>2012-05-06T12:00:29Z</time>
      </trkpt>
      <trkpt lat="43.08879" lon="2.26977">
        <ele>332.2728</ele>
        <time>2012-05-06T12:00:41Z</time>
      </trkpt>
      <trkpt lat="43.08877" lon="2.2694">
        <ele>333.2341</ele>
        <time>2012-05-06T12:00:50Z</time>
      </trkpt>
      <trkpt lat="43.08874" lon="2.26903">
        <ele>332.7535</ele>
        <time>2012-05-06T12:00:56Z</time>
      </trkpt>
      <trkpt lat="43.08878" lon="2.26876">
        <ele>331.3115</ele>
        <time>2012-05-06T12:01:00Z</time>
      </trkpt>
      <trkpt lat="43.08886" lon="2.26854">
        <ele>330.3502</ele>
        <time>2012-05-06T12:01:03Z</time>
      </trkpt>
      <trkpt lat="43.08891" lon="2.26835">
        <ele>329.8695</ele>
        <time>2012-05-06T12:01:06Z</time>
      </trkpt>
      <trkpt lat="43.08894" lon="2.26827">
        <ele>329.8695</ele>
        <time>2012-05-06T12:01:08Z</time>
      </trkpt>
      <trkpt lat="43.08903" lon="2.26798">
        <ele>331.7921</ele>
        <time>2012-05-06T12:01:17Z</time>
      </trkpt>
      <trkpt lat="43.08903" lon="2.26788">
        <ele>331.3115</ele>
        <time>2012-05-06T12:01:20Z</time>
      </trkpt>
      <trkpt lat="43.08925" lon="2.26736">
        <ele>331.7921</ele>
        <time>2012-05-06T12:01:35Z</time>
      </trkpt>
      <trkpt lat="43.08946" lon="2.26687">
        <ele>328.9083</ele>
        <time>2012-05-06T12:01:43Z</time>
      </trkpt>
      <trkpt lat="43.08949" lon="2.2667">
        <ele>327.4662</ele>
        <time>2012-05-06T12:01:45Z</time>
      </trkpt>
      <trkpt lat="43.08955" lon="2.26626">
        <ele>324.5823</ele>
        <time>2012-05-06T12:01:50Z</time>
      </trkpt>
      <trkpt lat="43.08957" lon="2.26612">
        <ele>323.1404</ele>
        <time>2012-05-06T12:01:52Z</time>
      </trkpt>
      <trkpt lat="43.08961" lon="2.26568">
        <ele>320.2563</ele>
        <time>2012-05-06T12:01:57Z</time>
      </trkpt>
      <trkpt lat="43.08961" lon="2.26547">
        <ele>319.295</ele>
        <time>2012-05-06T12:01:59Z</time>
      </trkpt>
      <trkpt lat="43.08962" lon="2.26528">
        <ele>317.3724</ele>
        <time>2012-05-06T12:02:01Z</time>
      </trkpt>
      <trkpt lat="43.08964" lon="2.26513">
        <ele>315.9304</ele>
        <time>2012-05-06T12:02:03Z</time>
      </trkpt>
      <trkpt lat="43.08964" lon="2.26506">
        <ele>315.9304</ele>
        <time>2012-05-06T12:02:04Z</time>
      </trkpt>
      <trkpt lat="43.08969" lon="2.26469">
        <ele>313.5272</ele>
        <time>2012-05-06T12:02:09Z</time>
      </trkpt>
      <trkpt lat="43.0897" lon="2.26456">
        <ele>311.6045</ele>
        <time>2012-05-06T12:02:11Z</time>
      </trkpt>
      <trkpt lat="43.0897" lon="2.26435">
        <ele>310.6431</ele>
        <time>2012-05-06T12:02:15Z</time>
      </trkpt>
      <trkpt lat="43.08971" lon="2.26379">
        <ele>311.6045</ele>
        <time>2012-05-06T12:02:25Z</time>
      </trkpt>
      <trkpt lat="43.08964" lon="2.26348">
        <ele>309.2012</ele>
        <time>2012-05-06T12:02:29Z</time>
      </trkpt>
      <trkpt lat="43.08957" lon="2.26312">
        <ele>306.7979</ele>
        <time>2012-05-06T12:02:34Z</time>
      </trkpt>
      <trkpt lat="43.08953" lon="2.26298">
        <ele>306.3173</ele>
        <time>2012-05-06T12:02:37Z</time>
      </trkpt>
      <trkpt lat="43.08941" lon="2.26259">
        <ele>304.3947</ele>
        <time>2012-05-06T12:02:43Z</time>
      </trkpt>
      <trkpt lat="43.08948" lon="2.26226">
        <ele>301.9913</ele>
        <time>2012-05-06T12:02:49Z</time>
      </trkpt>
      <trkpt lat="43.08959" lon="2.26194">
        <ele>299.588</ele>
        <time>2012-05-06T12:02:54Z</time>
      </trkpt>
      <trkpt lat="43.08966" lon="2.26178">
        <ele>297.6654</ele>
        <time>2012-05-06T12:02:59Z</time>
      </trkpt>
      <trkpt lat="43.0897" lon="2.2616">
        <ele>297.6654</ele>
        <time>2012-05-06T12:03:04Z</time>
      </trkpt>
      <trkpt lat="43.08973" lon="2.26156">
        <ele>296.7041</ele>
        <time>2012-05-06T12:03:06Z</time>
      </trkpt>
      <trkpt lat="43.08979" lon="2.26132">
        <ele>295.262</ele>
        <time>2012-05-06T12:03:12Z</time>
      </trkpt>
      <trkpt lat="43.08977" lon="2.26124">
        <ele>295.262</ele>
        <time>2012-05-06T12:03:15Z</time>
      </trkpt>
      <trkpt lat="43.08972" lon="2.26087">
        <ele>296.2235</ele>
        <time>2012-05-06T12:03:25Z</time>
      </trkpt>
      <trkpt lat="43.08971" lon="2.26078">
        <ele>296.7041</ele>
        <time>2012-05-06T12:03:28Z</time>
      </trkpt>
      <trkpt lat="43.08962" lon="2.26059">
        <ele>296.2235</ele>
        <time>2012-05-06T12:03:35Z</time>
      </trkpt>
      <trkpt lat="43.08966" lon="2.26053">
        <ele>295.262</ele>
        <time>2012-05-06T12:03:39Z</time>
      </trkpt>
      <trkpt lat="43.08982" lon="2.26036">
        <ele>294.7814</ele>
        <time>2012-05-06T12:03:46Z</time>
      </trkpt>
      <trkpt lat="43.08993" lon="2.2602">
        <ele>294.7814</ele>
        <time>2012-05-06T12:03:53Z</time>
      </trkpt>
      <trkpt lat="43.08993" lon="2.26017">
        <ele>295.262</ele>
        <time>2012-05-06T12:03:56Z</time>
      </trkpt>
      <trkpt lat="43.08994" lon="2.26013">
        <ele>295.262</ele>
        <time>2012-05-06T12:03:59Z</time>
      </trkpt>
      <trkpt lat="43.08997" lon="2.26002">
        <ele>298.6267</ele>
        <time>2012-05-06T12:04:12Z</time>
      </trkpt>
      <trkpt lat="43.09001" lon="2.25995">
        <ele>301.9913</ele>
        <time>2012-05-06T12:04:29Z</time>
      </trkpt>
      <trkpt lat="43.08997" lon="2.25954">
        <ele>299.588</ele>
        <time>2012-05-06T12:04:39Z</time>
      </trkpt>
      <trkpt lat="43.08997" lon="2.25949">
        <ele>298.1461</ele>
        <time>2012-05-06T12:04:40Z</time>
      </trkpt>
      <trkpt lat="43.09003" lon="2.25939">
        <ele>297.6654</ele>
        <time>2012-05-06T12:04:44Z</time>
      </trkpt>
      <trkpt lat="43.09005" lon="2.25926">
        <ele>296.7041</ele>
        <time>2012-05-06T12:04:47Z</time>
      </trkpt>
      <trkpt lat="43.09021" lon="2.2592">
        <ele>296.7041</ele>
        <time>2012-05-06T12:04:58Z</time>
      </trkpt>
      <trkpt lat="43.09024" lon="2.2592">
        <ele>297.6654</ele>
        <time>2012-05-06T12:05:00Z</time>
      </trkpt>
      <trkpt lat="43.09027" lon="2.25921">
        <ele>297.6654</ele>
        <time>2012-05-06T12:05:02Z</time>
      </trkpt>
      <trkpt lat="43.09038" lon="2.25909">
        <ele>295.7427</ele>
        <time>2012-05-06T12:05:07Z</time>
      </trkpt>
      <trkpt lat="43.09047" lon="2.25895">
        <ele>293.8201</ele>
        <time>2012-05-06T12:05:11Z</time>
      </trkpt>
      <trkpt lat="43.09057" lon="2.25887">
        <ele>291.8975</ele>
        <time>2012-05-06T12:05:15Z</time>
      </trkpt>
      <trkpt lat="43.09065" lon="2.25874">
        <ele>291.4167</ele>
        <time>2012-05-06T12:05:19Z</time>
      </trkpt>
      <trkpt lat="43.09071" lon="2.25867">
        <ele>290.4556</ele>
        <time>2012-05-06T12:05:22Z</time>
      </trkpt>
      <trkpt lat="43.09087" lon="2.25841">
        <ele>289.9749</ele>
        <time>2012-05-06T12:05:31Z</time>
      </trkpt>
      <trkpt lat="43.091" lon="2.25822">
        <ele>287.5714</ele>
        <time>2012-05-06T12:05:38Z</time>
      </trkpt>
      <trkpt lat="43.09106" lon="2.25812">
        <ele>287.5714</ele>
        <time>2012-05-06T12:05:41Z</time>
      </trkpt>
      <trkpt lat="43.0913" lon="2.25778">
        <ele>285.1682</ele>
        <time>2012-05-06T12:05:51Z</time>
      </trkpt>
      <trkpt lat="43.09134" lon="2.25774">
        <ele>285.1682</ele>
        <time>2012-05-06T12:05:53Z</time>
      </trkpt>
      <trkpt lat="43.09137" lon="2.25769">
        <ele>285.1682</ele>
        <time>2012-05-06T12:05:55Z</time>
      </trkpt>
      <trkpt lat="43.09151" lon="2.25763">
        <ele>284.6876</ele>
        <time>2012-05-06T12:05:59Z</time>
      </trkpt>
      <trkpt lat="43.09156" lon="2.25748">
        <ele>284.2069</ele>
        <time>2012-05-06T12:06:04Z</time>
      </trkpt>
      <trkpt lat="43.09169" lon="2.25727">
        <ele>283.2456</ele>
        <time>2012-05-06T12:06:11Z</time>
      </trkpt>
      <trkpt lat="43.09176" lon="2.25724">
        <ele>282.765</ele>
        <time>2012-05-06T12:06:13Z</time>
      </trkpt>
      <trkpt lat="43.09183" lon="2.25719">
        <ele>281.8036</ele>
        <time>2012-05-06T12:06:15Z</time>
      </trkpt>
      <trkpt lat="43.09195" lon="2.25721">
        <ele>280.3617</ele>
        <time>2012-05-06T12:06:18Z</time>
      </trkpt>
      <trkpt lat="43.09204" lon="2.25709">
        <ele>277.4777</ele>
        <time>2012-05-06T12:06:21Z</time>
      </trkpt>
      <trkpt lat="43.09207" lon="2.25705">
        <ele>275.5551</ele>
        <time>2012-05-06T12:06:22Z</time>
      </trkpt>
      <trkpt lat="43.09213" lon="2.2569">
        <ele>272.6711</ele>
        <time>2012-05-06T12:06:25Z</time>
      </trkpt>
      <trkpt lat="43.09214" lon="2.2568">
        <ele>269.7871</ele>
        <time>2012-05-06T12:06:27Z</time>
      </trkpt>
      <trkpt lat="43.09216" lon="2.25662">
        <ele>268.3451</ele>
        <time>2012-05-06T12:06:30Z</time>
      </trkpt>
      <trkpt lat="43.09214" lon="2.25649">
        <ele>265.9419</ele>
        <time>2012-05-06T12:06:32Z</time>
      </trkpt>
      <trkpt lat="43.0921" lon="2.25639">
        <ele>261.616</ele>
        <time>2012-05-06T12:06:34Z</time>
      </trkpt>
      <trkpt lat="43.09207" lon="2.25623">
        <ele>258.7319</ele>
        <time>2012-05-06T12:06:37Z</time>
      </trkpt>
      <trkpt lat="43.09205" lon="2.25617">
        <ele>256.3287</ele>
        <time>2012-05-06T12:06:38Z</time>
      </trkpt>
      <trkpt lat="43.09201" lon="2.25606">
        <ele>252.964</ele>
        <time>2012-05-06T12:06:40Z</time>
      </trkpt>
      <trkpt lat="43.092" lon="2.25599">
        <ele>251.0414</ele>
        <time>2012-05-06T12:06:42Z</time>
      </trkpt>
      <trkpt lat="43.09203" lon="2.25594">
        <ele>249.5995</ele>
        <time>2012-05-06T12:06:44Z</time>
      </trkpt>
      <trkpt lat="43.09214" lon="2.25583">
        <ele>249.5995</ele>
        <time>2012-05-06T12:06:47Z</time>
      </trkpt>
      <trkpt lat="43.09253" lon="2.25521">
        <ele>247.6768</ele>
        <time>2012-05-06T12:07:00Z</time>
      </trkpt>
      <trkpt lat="43.09254" lon="2.25513">
        <ele>247.196</ele>
        <time>2012-05-06T12:07:03Z</time>
      </trkpt>
      <trkpt lat="43.09258" lon="2.25498">
        <ele>247.196</ele>
        <time>2012-05-06T12:07:07Z</time>
      </trkpt>
      <trkpt lat="43.0926" lon="2.25478">
        <ele>244.7928</ele>
        <time>2012-05-06T12:07:12Z</time>
      </trkpt>
      <trkpt lat="43.0926" lon="2.25464">
        <ele>242.3896</ele>
        <time>2012-05-06T12:07:15Z</time>
      </trkpt>
      <trkpt lat="43.09252" lon="2.25456">
        <ele>239.0249</ele>
        <time>2012-05-06T12:07:18Z</time>
      </trkpt>
      <trkpt lat="43.09249" lon="2.25454">
        <ele>239.0249</ele>
        <time>2012-05-06T12:07:19Z</time>
      </trkpt>
      <trkpt lat="43.09244" lon="2.25451">
        <ele>236.6217</ele>
        <time>2012-05-06T12:07:21Z</time>
      </trkpt>
      <trkpt lat="43.09235" lon="2.25447">
        <ele>233.2571</ele>
        <time>2012-05-06T12:07:25Z</time>
      </trkpt>
      <trkpt lat="43.09232" lon="2.25446">
        <ele>233.2571</ele>
        <time>2012-05-06T12:07:26Z</time>
      </trkpt>
      <trkpt lat="43.09228" lon="2.25442">
        <ele>231.3344</ele>
        <time>2012-05-06T12:07:28Z</time>
      </trkpt>
      <trkpt lat="43.09228" lon="2.25437">
        <ele>229.4117</ele>
        <time>2012-05-06T12:07:30Z</time>
      </trkpt>
      <trkpt lat="43.09225" lon="2.25416">
        <ele>223.6438</ele>
        <time>2012-05-06T12:07:34Z</time>
      </trkpt>
      <trkpt lat="43.09224" lon="2.25411">
        <ele>223.6438</ele>
        <time>2012-05-06T12:07:35Z</time>
      </trkpt>
      <trkpt lat="43.09224" lon="2.25408">
        <ele>220.2792</ele>
        <time>2012-05-06T12:07:36Z</time>
      </trkpt>
      <trkpt lat="43.09224" lon="2.25405">
        <ele>220.2792</ele>
        <time>2012-05-06T12:07:37Z</time>
      </trkpt>
      <trkpt lat="43.09221" lon="2.25401">
        <ele>218.8373</ele>
        <time>2012-05-06T12:07:39Z</time>
      </trkpt>
      <trkpt lat="43.09211" lon="2.25402">
        <ele>216.9147</ele>
        <time>2012-05-06T12:07:42Z</time>
      </trkpt>
      <trkpt lat="43.09188" lon="2.25392">
        <ele>214.9919</ele>
        <time>2012-05-06T12:07:46Z</time>
      </trkpt>
      <trkpt lat="43.09175" lon="2.25389">
        <ele>212.108</ele>
        <time>2012-05-06T12:07:49Z</time>
      </trkpt>
      <trkpt lat="43.09164" lon="2.25414">
        <ele>209.7048</ele>
        <time>2012-05-06T12:07:53Z</time>
      </trkpt>
      <trkpt lat="43.09153" lon="2.25418">
        <ele>206.8207</ele>
        <time>2012-05-06T12:07:56Z</time>
      </trkpt>
      <trkpt lat="43.0911" lon="2.25421">
        <ele>207.7821</ele>
        <time>2012-05-06T12:08:10Z</time>
      </trkpt>
      <trkpt lat="43.09092" lon="2.25428">
        <ele>210.1854</ele>
        <time>2012-05-06T12:08:19Z</time>
      </trkpt>
      <trkpt lat="43.09051" lon="2.25463">
        <ele>210.666</ele>
        <time>2012-05-06T12:08:36Z</time>
      </trkpt>
      <trkpt lat="43.0902" lon="2.25487">
        <ele>208.7434</ele>
        <time>2012-05-06T12:08:42Z</time>
      </trkpt>
      <trkpt lat="43.08992" lon="2.25491">
        <ele>205.8595</ele>
        <time>2012-05-06T12:08:46Z</time>
      </trkpt>
      <trkpt lat="43.08966" lon="2.25501">
        <ele>203.9369</ele>
        <time>2012-05-06T12:08:49Z</time>
      </trkpt>
      <trkpt lat="43.08957" lon="2.25503">
        <ele>201.0529</ele>
        <time>2012-05-06T12:08:50Z</time>
      </trkpt>
      <trkpt lat="43.08939" lon="2.25497">
        <ele>198.1689</ele>
        <time>2012-05-06T12:08:53Z</time>
      </trkpt>
      <trkpt lat="43.08919" lon="2.25499">
        <ele>196.2463</ele>
        <time>2012-05-06T12:08:56Z</time>
      </trkpt>
      <trkpt lat="43.08913" lon="2.25502">
        <ele>196.2463</ele>
        <time>2012-05-06T12:08:57Z</time>
      </trkpt>
      <trkpt lat="43.08853" lon="2.25544">
        <ele>196.7269</ele>
        <time>2012-05-06T12:09:10Z</time>
      </trkpt>
      <trkpt lat="43.08832" lon="2.25568">
        <ele>197.2075</ele>
        <time>2012-05-06T12:09:18Z</time>
      </trkpt>
      <trkpt lat="43.08811" lon="2.25581">
        <ele>195.7656</ele>
        <time>2012-05-06T12:09:22Z</time>
      </trkpt>
      <trkpt lat="43.08796" lon="2.25585">
        <ele>194.8043</ele>
        <time>2012-05-06T12:09:24Z</time>
      </trkpt>
      <trkpt lat="43.08779" lon="2.2559">
        <ele>193.3623</ele>
        <time>2012-05-06T12:09:26Z</time>
      </trkpt>
      <trkpt lat="43.08763" lon="2.25594">
        <ele>191.9203</ele>
        <time>2012-05-06T12:09:28Z</time>
      </trkpt>
      <trkpt lat="43.08755" lon="2.25597">
        <ele>190.4784</ele>
        <time>2012-05-06T12:09:29Z</time>
      </trkpt>
      <trkpt lat="43.08744" lon="2.25609">
        <ele>189.0364</ele>
        <time>2012-05-06T12:09:31Z</time>
      </trkpt>
      <trkpt lat="43.08734" lon="2.25619">
        <ele>188.0751</ele>
        <time>2012-05-06T12:09:33Z</time>
      </trkpt>
      <trkpt lat="43.08716" lon="2.25651">
        <ele>189.517</ele>
        <time>2012-05-06T12:09:43Z</time>
      </trkpt>
      <trkpt lat="43.08712" lon="2.2566">
        <ele>189.517</ele>
        <time>2012-05-06T12:09:47Z</time>
      </trkpt>
      <trkpt lat="43.08714" lon="2.25666">
        <ele>190.959</ele>
        <time>2012-05-06T12:09:50Z</time>
      </trkpt>
      <trkpt lat="43.08687" lon="2.25699">
        <ele>192.8817</ele>
        <time>2012-05-06T12:10:05Z</time>
      </trkpt>
      <trkpt lat="43.08668" lon="2.2573">
        <ele>195.2849</ele>
        <time>2012-05-06T12:10:19Z</time>
      </trkpt>
      <trkpt lat="43.08653" lon="2.25761">
        <ele>198.6495</ele>
        <time>2012-05-06T12:10:34Z</time>
      </trkpt>
      <trkpt lat="43.08651" lon="2.25776">
        <ele>199.1301</ele>
        <time>2012-05-06T12:10:39Z</time>
      </trkpt>
      <trkpt lat="43.0865" lon="2.25793">
        <ele>199.1301</ele>
        <time>2012-05-06T12:10:42Z</time>
      </trkpt>
      <trkpt lat="43.08644" lon="2.25804">
        <ele>197.2075</ele>
        <time>2012-05-06T12:10:45Z</time>
      </trkpt>
      <trkpt lat="43.08636" lon="2.258">
        <ele>197.6882</ele>
        <time>2012-05-06T12:10:48Z</time>
      </trkpt>
      <trkpt lat="43.08628" lon="2.25794">
        <ele>196.7269</ele>
        <time>2012-05-06T12:10:50Z</time>
      </trkpt>
      <trkpt lat="43.08618" lon="2.25791">
        <ele>196.2463</ele>
        <time>2012-05-06T12:10:52Z</time>
      </trkpt>
      <trkpt lat="43.08607" lon="2.25796">
        <ele>194.8043</ele>
        <time>2012-05-06T12:10:54Z</time>
      </trkpt>
      <trkpt lat="43.08601" lon="2.258">
        <ele>194.8043</ele>
        <time>2012-05-06T12:10:55Z</time>
      </trkpt>
      <trkpt lat="43.08584" lon="2.25814">
        <ele>193.3623</ele>
        <time>2012-05-06T12:10:58Z</time>
      </trkpt>
      <trkpt lat="43.08545" lon="2.25833">
        <ele>191.9203</ele>
        <time>2012-05-06T12:11:04Z</time>
      </trkpt>
      <trkpt lat="43.08512" lon="2.25866">
        <ele>190.959</ele>
        <time>2012-05-06T12:11:13Z</time>
      </trkpt>
      <trkpt lat="43.08506" lon="2.25881">
        <ele>188.5558</ele>
        <time>2012-05-06T12:11:16Z</time>
      </trkpt>
      <trkpt lat="43.08487" lon="2.25892">
        <ele>187.1138</ele>
        <time>2012-05-06T12:11:20Z</time>
      </trkpt>
      <trkpt lat="43.0845" lon="2.25914">
        <ele>187.5944</ele>
        <time>2012-05-06T12:11:33Z</time>
      </trkpt>
      <trkpt lat="43.08443" lon="2.2593">
        <ele>190.4784</ele>
        <time>2012-05-06T12:11:42Z</time>
      </trkpt>
      <trkpt lat="43.08424" lon="2.2596">
        <ele>192.4011</ele>
        <time>2012-05-06T12:11:56Z</time>
      </trkpt>
      <trkpt lat="43.0841" lon="2.25985">
        <ele>191.4396</ele>
        <time>2012-05-06T12:12:05Z</time>
      </trkpt>
      <trkpt lat="43.08381" lon="2.26001">
        <ele>189.9977</ele>
        <time>2012-05-06T12:12:10Z</time>
      </trkpt>
      <trkpt lat="43.08368" lon="2.26009">
        <ele>188.0751</ele>
        <time>2012-05-06T12:12:13Z</time>
      </trkpt>
      <trkpt lat="43.08365" lon="2.26013">
        <ele>186.1525</ele>
        <time>2012-05-06T12:12:32Z</time>
      </trkpt>
      <trkpt lat="43.08362" lon="2.26016">
        <ele>187.1138</ele>
        <time>2012-05-06T12:12:42Z</time>
      </trkpt>
      <trkpt lat="43.08364" lon="2.26025">
        <ele>187.1138</ele>
        <time>2012-05-06T12:12:55Z</time>
      </trkpt>
      <trkpt lat="43.08366" lon="2.26031">
        <ele>187.5944</ele>
        <time>2012-05-06T12:13:15Z</time>
      </trkpt>
      <trkpt lat="43.08366" lon="2.26032">
        <ele>187.5944</ele>
        <time>2012-05-06T12:13:58Z</time>
      </trkpt>
      <trkpt lat="43.08365" lon="2.26033">
        <ele>187.5944</ele>
        <time>2012-05-06T12:14:11Z</time>
      </trkpt>
      <trkpt lat="43.08336" lon="2.2606">
        <ele>190.959</ele>
        <time>2012-05-06T12:14:28Z</time>
      </trkpt>
      <trkpt lat="43.08298" lon="2.26075">
        <ele>194.3237</ele>
        <time>2012-05-06T12:14:46Z</time>
      </trkpt>
      <trkpt lat="43.0826" lon="2.26084">
        <ele>197.6882</ele>
        <time>2012-05-06T12:15:05Z</time>
      </trkpt>
      <trkpt lat="43.08235" lon="2.26087">
        <ele>201.0529</ele>
        <time>2012-05-06T12:15:19Z</time>
      </trkpt>
      <trkpt lat="43.08218" lon="2.26084">
        <ele>203.9369</ele>
        <time>2012-05-06T12:15:28Z</time>
      </trkpt>
      <trkpt lat="43.08175" lon="2.26066">
        <ele>205.3788</ele>
        <time>2012-05-06T12:15:46Z</time>
      </trkpt>
      <trkpt lat="43.08152" lon="2.2602">
        <ele>205.3788</ele>
        <time>2012-05-06T12:16:00Z</time>
      </trkpt>
      <trkpt lat="43.08202" lon="2.26008">
        <ele>208.2628</ele>
        <time>2012-05-06T12:16:15Z</time>
      </trkpt>
      <trkpt lat="43.08261" lon="2.25967">
        <ele>211.6274</ele>
        <time>2012-05-06T12:16:40Z</time>
      </trkpt>
      <trkpt lat="43.0829" lon="2.25931">
        <ele>214.9919</ele>
        <time>2012-05-06T12:16:54Z</time>
      </trkpt>
      <trkpt lat="43.08319" lon="2.25876">
        <ele>216.9147</ele>
        <time>2012-05-06T12:17:14Z</time>
      </trkpt>
      <trkpt lat="43.08295" lon="2.25797">
        <ele>220.2792</ele>
        <time>2012-05-06T12:17:36Z</time>
      </trkpt>
      <trkpt lat="43.08318" lon="2.25765">
        <ele>223.1632</ele>
        <time>2012-05-06T12:17:49Z</time>
      </trkpt>
      <trkpt lat="43.08367" lon="2.25777">
        <ele>226.0471</ele>
        <time>2012-05-06T12:18:06Z</time>
      </trkpt>
      <trkpt lat="43.08402" lon="2.25709">
        <ele>228.4504</ele>
        <time>2012-05-06T12:18:26Z</time>
      </trkpt>
      <trkpt lat="43.08444" lon="2.2566">
        <ele>232.2958</ele>
        <time>2012-05-06T12:18:41Z</time>
      </trkpt>
      <trkpt lat="43.08447" lon="2.25657">
        <ele>232.2958</ele>
        <time>2012-05-06T12:18:42Z</time>
      </trkpt>
      <trkpt lat="43.08466" lon="2.25636">
        <ele>234.2184</ele>
        <time>2012-05-06T12:18:49Z</time>
      </trkpt>
      <trkpt lat="43.08484" lon="2.25615">
        <ele>236.6217</ele>
        <time>2012-05-06T12:18:56Z</time>
      </trkpt>
      <trkpt lat="43.08531" lon="2.25525">
        <ele>239.5055</ele>
        <time>2012-05-06T12:19:23Z</time>
      </trkpt>
      <trkpt lat="43.08539" lon="2.25467">
        <ele>242.8702</ele>
        <time>2012-05-06T12:19:38Z</time>
      </trkpt>
      <trkpt lat="43.08502" lon="2.25446">
        <ele>244.3123</ele>
        <time>2012-05-06T12:19:52Z</time>
      </trkpt>
      <trkpt lat="43.0846" lon="2.25476">
        <ele>247.196</ele>
        <time>2012-05-06T12:20:08Z</time>
      </trkpt>
      <trkpt lat="43.08456" lon="2.25474">
        <ele>248.6382</ele>
        <time>2012-05-06T12:20:10Z</time>
      </trkpt>
      <trkpt lat="43.08446" lon="2.25459">
        <ele>249.1188</ele>
        <time>2012-05-06T12:20:20Z</time>
      </trkpt>
      <trkpt lat="43.0843" lon="2.25419">
        <ele>251.0414</ele>
        <time>2012-05-06T12:20:38Z</time>
      </trkpt>
      <trkpt lat="43.08414" lon="2.25366">
        <ele>253.9254</ele>
        <time>2012-05-06T12:21:00Z</time>
      </trkpt>
      <trkpt lat="43.08439" lon="2.2534">
        <ele>253.4447</ele>
        <time>2012-05-06T12:21:12Z</time>
      </trkpt>
      <trkpt lat="43.08492" lon="2.25329">
        <ele>252.0028</ele>
        <time>2012-05-06T12:21:27Z</time>
      </trkpt>
      <trkpt lat="43.08557" lon="2.25248">
        <ele>254.406</ele>
        <time>2012-05-06T12:21:45Z</time>
      </trkpt>
      <trkpt lat="43.08605" lon="2.25154">
        <ele>254.406</ele>
        <time>2012-05-06T12:22:03Z</time>
      </trkpt>
      <trkpt lat="43.0863" lon="2.25105">
        <ele>254.406</ele>
        <time>2012-05-06T12:22:11Z</time>
      </trkpt>
      <trkpt lat="43.08641" lon="2.25087">
        <ele>252.964</ele>
        <time>2012-05-06T12:22:14Z</time>
      </trkpt>
      <trkpt lat="43.08728" lon="2.2499">
        <ele>252.0028</ele>
        <time>2012-05-06T12:22:33Z</time>
      </trkpt>
      <trkpt lat="43.08778" lon="2.24916">
        <ele>251.0414</ele>
        <time>2012-05-06T12:22:50Z</time>
      </trkpt>
      <trkpt lat="43.08784" lon="2.24834">
        <ele>253.9254</ele>
        <time>2012-05-06T12:23:09Z</time>
      </trkpt>
      <trkpt lat="43.08785" lon="2.24813">
        <ele>253.9254</ele>
        <time>2012-05-06T12:23:15Z</time>
      </trkpt>
    </trkseg>
  </trk>
</gpx>